Observation data for Dell City 1N on 05/26/2019      Previous  Date  Next       Current Mesonet Observations  Soil Data  Daily Summary Page  Observations in Plain Language
KDC1 260500Z 16011KT 25/16 A2992 RMK A01 T02470156  RH  057%=      5-min Rain = 0
KDC1 260501Z 16011KT 25/16 A2993 RMK A01 T02470156  RH  057%=      5-min Rain = 0
KDC1 260502Z 16011KT 25/16 A2993 RMK A01 T02470156  RH  057%=      5-min Rain = 0
KDC1 260503Z 16010KT 25/16 A2993 RMK A01 T02480156  RH  057%=      5-min Rain = 0
KDC1 260504Z 18007KT 25/16 A2993 RMK A01 T02480156  RH  057%=      5-min Rain = 0
KDC1 260505Z 18008KT 25/16 A2993 RMK A01 T02480156  RH  056%=      5-min Rain = 0
KDC1 260506Z 17008KT 25/16 A2993 RMK A01 T02490156  RH  056%=      5-min Rain = 0
KDC1 260507Z 17008KT 25/16 A2993 RMK A01 T02490157  RH  056%=      5-min Rain = 0
KDC1 260508Z 16009KT 25/16 A2992 RMK A01 T02500157  RH  056%=      5-min Rain = 0
KDC1 260509Z 15010KT 25/16 A2992 RMK A01 T02490158  RH  057%=      5-min Rain = 0
KDC1 260510Z 15012KT 25/16 A2992 RMK A01 T02480158  RH  057%=      5-min Rain = 0
KDC1 260511Z 15010KT 25/16 A2992 RMK A01 T02470159  RH  058%=      5-min Rain = 0
KDC1 260512Z 14011KT 25/16 A2992 RMK A01 T02460159  RH  058%=      5-min Rain = 0
KDC1 260513Z 14014KT 25/16 A2991 RMK A01 T02450159  RH  059%=      5-min Rain = 0
KDC1 260514Z 14013KT 25/16 A2991 RMK A01 T02460160  RH  059%=      5-min Rain = 0
KDC1 260515Z 14013KT 25/16 A2991 RMK A01 T02460160  RH  059%=      5-min Rain = 0
KDC1 260516Z 15011KT 25/16 A2991 RMK A01 T02460160  RH  058%=      5-min Rain = 0
KDC1 260517Z 15012KT 25/16 A2991 RMK A01 T02460160  RH  058%=      5-min Rain = 0
KDC1 260518Z 15011KT 25/16 A2991 RMK A01 T02460160  RH  058%=      5-min Rain = 0
KDC1 260519Z 15009KT 25/16 A2991 RMK A01 T02460161  RH  059%=      5-min Rain = 0
KDC1 260520Z 14013KT 24/16 A2991 RMK A01 T02440161  RH  060%=      5-min Rain = 0
KDC1 260521Z 14015KT 24/16 A2991 RMK A01 T02420162  RH  061%=      5-min Rain = 0
KDC1 260522Z 14014KT 24/16 A2991 RMK A01 T02410162  RH  061%=      5-min Rain = 0
KDC1 260523Z 15014KT 24/16 A2991 RMK A01 T02410162  RH  061%=      5-min Rain = 0
KDC1 260524Z 15013KT 24/16 A2991 RMK A01 T02420163  RH  061%=      5-min Rain = 0
KDC1 260525Z 15014KT 24/16 A2992 RMK A01 T02440163  RH  061%=      5-min Rain = 0
KDC1 260526Z 15015KT 25/16 A2992 RMK A01 T02450164  RH  061%=      5-min Rain = 0
KDC1 260527Z 15014KT 25/16 A2992 RMK A01 T02450164  RH  060%=      5-min Rain = 0
KDC1 260528Z 15013KT 25/16 A2992 RMK A01 T02460164  RH  060%=      5-min Rain = 0
KDC1 260529Z 16012KT 25/16 A2993 RMK A01 T02470164  RH  060%=      5-min Rain = 0
KDC1 260530Z 16015KT 25/17 A2993 RMK A01 T02480165  RH  060%=      5-min Rain = 0
KDC1 260531Z 16014G19KT 25/17 A2993 RMK A01 T02480165  RH  060%=      5-min Rain = 0
KDC1 260532Z 16018KT 25/17 A2993 RMK A01 T02480165  RH  060%=      5-min Rain = 0
KDC1 260533Z 16014G19KT 25/17 A2994 RMK A01 T02490165  RH  060%=      5-min Rain = 0
KDC1 260534Z 17014KT 25/17 A2994 RMK A01 T02500165  RH  059%=      5-min Rain = 0
KDC1 260535Z 17014KT 25/17 A2994 RMK A01 T02510165  RH  059%=      5-min Rain = 0
KDC1 260536Z 17011KT 25/16 A2994 RMK A01 T02510164  RH  058%=      5-min Rain = 0
KDC1 260537Z 18011KT 25/17 A2994 RMK A01 T02520165  RH  058%=      5-min Rain = 0
KDC1 260538Z 17010KT 25/17 A2994 RMK A01 T02530166  RH  058%=      5-min Rain = 0
KDC1 260539Z 18008KT 25/17 A2994 RMK A01 T02530166  RH  059%=      5-min Rain = 0
KDC1 260540Z 18011KT 25/17 A2994 RMK A01 T02530167  RH  059%=      5-min Rain = 0
KDC1 260541Z 16013KT 25/17 A2994 RMK A01 T02520167  RH  059%=      5-min Rain = 0
KDC1 260542Z 15012KT 25/17 A2994 RMK A01 T02510168  RH  060%=      5-min Rain = 0
KDC1 260543Z 15013KT 25/17 A2994 RMK A01 T02500168  RH  060%=      5-min Rain = 0
KDC1 260544Z 15013KT 25/17 A2993 RMK A01 T02490168  RH  061%=      5-min Rain = 0
KDC1 260545Z 15012KT 25/17 A2993 RMK A01 T02490169  RH  061%=      5-min Rain = 0
KDC1 260546Z 15020KT 25/17 A2993 RMK A01 T02480169  RH  061%=      5-min Rain = 0
KDC1 260547Z 14019KT 25/17 A2993 RMK A01 T02480169  RH  061%=      5-min Rain = 0
KDC1 260548Z 14014KT 25/17 A2993 RMK A01 T02490168  RH  061%=      5-min Rain = 0
KDC1 260549Z 14011KT 25/17 A2993 RMK A01 T02500169  RH  061%=      5-min Rain = 0
KDC1 260550Z 15014KT 25/17 A2993 RMK A01 T02490170  RH  061%=      5-min Rain = 0
KDC1 260551Z 15014KT 25/17 A2993 RMK A01 T02480170  RH  062%=      5-min Rain = 0
KDC1 260552Z 15017KT 25/17 A2992 RMK A01 T02480170  RH  062%=      5-min Rain = 0
KDC1 260553Z 14019KT 25/17 A2992 RMK A01 T02470169  RH  062%=      5-min Rain = 0
KDC1 260554Z 14016G21KT 25/17 A2993 RMK A01 T02470169  RH  062%=      5-min Rain = 0
KDC1 260555Z 15018KT 25/17 A2992 RMK A01 T02480169  RH  061%=      5-min Rain = 0
KDC1 260556Z 15015KT 25/17 A2992 RMK A01 T02480168  RH  061%=      5-min Rain = 0
KDC1 260557Z 14016KT 25/17 A2992 RMK A01 T02480168  RH  061%=      5-min Rain = 0
KDC1 260558Z 15017G22KT 25/17 A2992 RMK A01 T02480168  RH  061%=      5-min Rain = 0
KDC1 260559Z 14018KT 25/17 A2992 RMK A01 T02490167  RH  061%=      5-min Rain = 0
KDC1 260600Z 14016KT 25/17 A2992 RMK A01 T02490167  RH  060%=      5-min Rain = 0
KDC1 260601Z 14016KT 25/17 A2992 RMK A01 T02490167  RH  060%=      5-min Rain = 0
KDC1 260602Z 14015KT 25/17 A2992 RMK A01 T02490166  RH  060%=      5-min Rain = 0
KDC1 260603Z 14014KT 25/17 A2992 RMK A01 T02490167  RH  060%=      5-min Rain = 0
KDC1 260604Z 13014KT 25/17 A2992 RMK A01 T02490167  RH  060%=      5-min Rain = 0
KDC1 260605Z 13012KT 25/17 A2992 RMK A01 T02490166  RH  060%=      5-min Rain = 0
KDC1 260606Z 13013KT 25/17 A2992 RMK A01 T02480167  RH  061%=      5-min Rain = 0
KDC1 260607Z 13012KT 25/17 A2992 RMK A01 T02460166  RH  061%=      5-min Rain = 0
KDC1 260608Z 13009KT 25/17 A2991 RMK A01 T02460166  RH  061%=      5-min Rain = 0
KDC1 260609Z 13008KT 25/17 A2991 RMK A01 T02450166  RH  061%=      5-min Rain = 0
KDC1 260610Z 14007KT 24/17 A2991 RMK A01 T02430166  RH  062%=      5-min Rain = 0
KDC1 260611Z 13007KT 24/17 A2991 RMK A01 T02420165  RH  062%=      5-min Rain = 0
KDC1 260612Z 13005KT 24/17 A2991 RMK A01 T02410165  RH  062%=      5-min Rain = 0
KDC1 260613Z 13006KT 24/16 A2991 RMK A01 T02400164  RH  063%=      5-min Rain = 0
KDC1 260614Z 13007KT 24/16 A2991 RMK A01 T02390162  RH  062%=      5-min Rain = 0
KDC1 260615Z 13007KT 24/16 A2991 RMK A01 T02390161  RH  062%=      5-min Rain = 0
KDC1 260616Z 13007KT 24/16 A2991 RMK A01 T02380162  RH  062%=      5-min Rain = 0
KDC1 260617Z 12007KT 24/16 A2991 RMK A01 T02370161  RH  062%=      5-min Rain = 0
KDC1 260618Z 13007KT 24/16 A2991 RMK A01 T02370161  RH  062%=      5-min Rain = 0
KDC1 260619Z 14004KT 24/16 A2991 RMK A01 T02360160  RH  062%=      5-min Rain = 0
KDC1 260620Z 14004KT 24/16 A2991 RMK A01 T02370160  RH  062%=      5-min Rain = 0
KDC1 260621Z 18002KT 24/16 A2991 RMK A01 T02370159  RH  062%=      5-min Rain = 0
KDC1 260622Z 20002KT 24/16 A2991 RMK A01 T02370159  RH  062%=      5-min Rain = 0
KDC1 260623Z 23002KT 24/16 A2991 RMK A01 T02370158  RH  061%=      5-min Rain = 0
KDC1 260624Z 24003KT 24/16 A2991 RMK A01 T02370158  RH  061%=      5-min Rain = 0
KDC1 260625Z 24004KT 24/16 A2991 RMK A01 T02380158  RH  061%=      5-min Rain = 0
KDC1 260626Z 25003KT 24/16 A2991 RMK A01 T02390159  RH  061%=      5-min Rain = 0
KDC1 260627Z 24004KT 24/16 A2991 RMK A01 T02390159  RH  061%=      5-min Rain = 0
KDC1 260628Z 25003KT 24/16 A2991 RMK A01 T02390160  RH  061%=      5-min Rain = 0
KDC1 260629Z 24003KT 24/16 A2991 RMK A01 T02380160  RH  061%=      5-min Rain = 0
KDC1 260630Z 26003KT 24/16 A2991 RMK A01 T02380159  RH  061%=      5-min Rain = 0
KDC1 260631Z 27004KT 24/16 A2991 RMK A01 T02370160  RH  062%=      5-min Rain = 0
KDC1 260632Z 28003KT 24/16 A2991 RMK A01 T02360160  RH  062%=      5-min Rain = 0
KDC1 260633Z 29003KT 23/16 A2991 RMK A01 T02340160  RH  063%=      5-min Rain = 0
KDC1 260634Z 28003KT 23/16 A2991 RMK A01 T02330159  RH  063%=      5-min Rain = 0
KDC1 260635Z 28003KT 23/16 A299 RMK A01 T02310159  RH  064%=      5-min Rain = 0
KDC1 260636Z 27003KT 23/16 A299 RMK A01 T02300159  RH  065%=      5-min Rain = 0
KDC1 260637Z 27003KT 23/16 A299 RMK A01 T02290158  RH  064%=      5-min Rain = 0
KDC1 260638Z 26003KT 23/16 A299 RMK A01 T02290158  RH  064%=      5-min Rain = 0
KDC1 260639Z 25004KT 23/16 A299 RMK A01 T02280158  RH  065%=      5-min Rain = 0
KDC1 260640Z 25004KT 23/16 A299 RMK A01 T02270158  RH  065%=      5-min Rain = 0
KDC1 260641Z 25004KT 23/16 A299 RMK A01 T02280158  RH  065%=      5-min Rain = 0
KDC1 260642Z 26004KT 23/16 A299 RMK A01 T02290157  RH  064%=      5-min Rain = 0
KDC1 260643Z 24003KT 23/16 A299 RMK A01 T02290158  RH  064%=      5-min Rain = 0
KDC1 260644Z 22003KT 23/16 A299 RMK A01 T02300159  RH  064%=      5-min Rain = 0
KDC1 260645Z 17003KT 23/16 A299 RMK A01 T02310156  RH  063%=      5-min Rain = 0
KDC1 260646Z 18002KT 23/15 A299 RMK A01 T02330153  RH  061%=      5-min Rain = 0
KDC1 260647Z 21003KT 23/16 A299 RMK A01 T02340155  RH  061%=      5-min Rain = 0
KDC1 260648Z 21003KT 23/16 A299 RMK A01 T02320156  RH  062%=      5-min Rain = 0
KDC1 260649Z 21004KT 23/16 A299 RMK A01 T02320155  RH  062%=      5-min Rain = 0
KDC1 260650Z 21003KT 23/15 A299 RMK A01 T02330154  RH  061%=      5-min Rain = 0
KDC1 260651Z 22004KT 23/16 A299 RMK A01 T02330155  RH  061%=      5-min Rain = 0
KDC1 260652Z 23004KT 23/16 A299 RMK A01 T02330156  RH  062%=      5-min Rain = 0
KDC1 260653Z 23005KT 23/16 A299 RMK A01 T02330155  RH  062%=      5-min Rain = 0
KDC1 260654Z 23005KT 23/16 A299 RMK A01 T02310155  RH  062%=      5-min Rain = 0
KDC1 260655Z 25004KT 23/16 A299 RMK A01 T02300155  RH  063%=      5-min Rain = 0
KDC1 260656Z 27006KT 23/16 A299 RMK A01 T02270155  RH  064%=      5-min Rain = 0
KDC1 260657Z 27009KT 22/15 A299 RMK A01 T02220154  RH  065%=      5-min Rain = 0
KDC1 260658Z 27009KT 22/15 A299 RMK A01 T02170153  RH  067%=      5-min Rain = 0
KDC1 260659Z 27010KT 21/15 A299 RMK A01 T02130154  RH  069%=      5-min Rain = 0
KDC1 260700Z 27011KT 21/16 A2991 RMK A01 T02120157  RH  071%=      5-min Rain = 0
KDC1 260701Z 27011KT 21/16 A2991 RMK A01 T02120159  RH  071%=      5-min Rain = 0
KDC1 260702Z 27009KT 21/16 A2991 RMK A01 T02120159  RH  072%=      5-min Rain = 0
KDC1 260703Z 27008KT 21/16 A2991 RMK A01 T02110160  RH  072%=      5-min Rain = 0
KDC1 260704Z 27008KT 21/16 A2991 RMK A01 T02110159  RH  072%=      5-min Rain = 0
KDC1 260705Z 26008KT 21/16 A2991 RMK A01 T02110159  RH  072%=      5-min Rain = 0
KDC1 260706Z 26007KT 21/16 A2991 RMK A01 T02110159  RH  072%=      5-min Rain = 0
KDC1 260707Z 25006KT 21/16 A2991 RMK A01 T02110159  RH  072%=      5-min Rain = 0
KDC1 260708Z 24004KT 21/16 A2991 RMK A01 T02130159  RH  071%=      5-min Rain = 0
KDC1 260709Z 25005KT 22/16 A2991 RMK A01 T02160159  RH  070%=      5-min Rain = 0
KDC1 260710Z 25005KT 22/16 A2991 RMK A01 T02160160  RH  070%=      5-min Rain = 0
KDC1 260711Z 26005KT 22/16 A2991 RMK A01 T02170160  RH  070%=      5-min Rain = 0
KDC1 260712Z 27006KT 22/16 A2991 RMK A01 T02160160  RH  070%=      5-min Rain = 0
KDC1 260713Z 28007KT 21/16 A2991 RMK A01 T02130158  RH  071%=      5-min Rain = 0
KDC1 260714Z 28007KT 21/16 A2991 RMK A01 T02110157  RH  071%=      5-min Rain = 0
KDC1 260715Z 28008KT 21/16 A2991 RMK A01 T02080157  RH  073%=      5-min Rain = 0
KDC1 260716Z 29008KT 21/16 A2991 RMK A01 T02070159  RH  074%=      5-min Rain = 0
KDC1 260717Z 29008KT 20/16 A2991 RMK A01 T02040159  RH  075%=      5-min Rain = 0
KDC1 260718Z 28008KT 20/16 A2991 RMK A01 T02020159  RH  076%=      5-min Rain = 0
KDC1 260719Z 28009KT 20/16 A2991 RMK A01 T02010158  RH  076%=      5-min Rain = 0
KDC1 260720Z 28011KT 20/16 A2991 RMK A01 T02010158  RH  076%=      5-min Rain = 0
KDC1 260721Z 27008KT 20/16 A2991 RMK A01 T02040158  RH  075%=      5-min Rain = 0
KDC1 260722Z 27007KT 21/16 A2991 RMK A01 T02060158  RH  074%=      5-min Rain = 0
KDC1 260723Z 26007KT 21/16 A2991 RMK A01 T02070158  RH  074%=      5-min Rain = 0
KDC1 260724Z 27008KT 21/16 A2991 RMK A01 T02080158  RH  073%=      5-min Rain = 0
KDC1 260725Z 26008KT 21/16 A2991 RMK A01 T02110160  RH  072%=      5-min Rain = 0
KDC1 260726Z 24006KT 22/16 A2991 RMK A01 T02150161  RH  071%=      5-min Rain = 0
KDC1 260727Z 25007KT 22/16 A2991 RMK A01 T02190161  RH  070%=      5-min Rain = 0
KDC1 260728Z 25008KT 22/16 A2991 RMK A01 T02200161  RH  069%=      5-min Rain = 0
KDC1 260729Z 25008KT 22/16 A2991 RMK A01 T02200161  RH  069%=      5-min Rain = 0
KDC1 260730Z 24007KT 22/16 A2992 RMK A01 T02200160  RH  069%=      5-min Rain = 0
KDC1 260731Z 25008KT 22/16 A2992 RMK A01 T02200160  RH  069%=      5-min Rain = 0
KDC1 260732Z 24006KT 22/16 A2992 RMK A01 T02190160  RH  069%=      5-min Rain = 0
KDC1 260733Z 24007KT 22/16 A2992 RMK A01 T02170159  RH  070%=      5-min Rain = 0
KDC1 260734Z 24007KT 22/16 A2992 RMK A01 T02150159  RH  070%=      5-min Rain = 0
KDC1 260735Z 24008KT 21/16 A2992 RMK A01 T02130159  RH  071%=      5-min Rain = 0
KDC1 260736Z 24007KT 21/16 A2992 RMK A01 T02120159  RH  072%=      5-min Rain = 0
KDC1 260737Z 24006KT 21/16 A2992 RMK A01 T02110159  RH  072%=      5-min Rain = 0
KDC1 260738Z 24006KT 21/16 A2991 RMK A01 T02110158  RH  072%=      5-min Rain = 0
KDC1 260739Z 24007KT 21/16 A2991 RMK A01 T02100159  RH  072%=      5-min Rain = 0
KDC1 260740Z 25008KT 21/16 A2991 RMK A01 T02100158  RH  072%=      5-min Rain = 0
KDC1 260741Z 24007KT 21/16 A2991 RMK A01 T02090158  RH  072%=      5-min Rain = 0
KDC1 260742Z 24007KT 21/16 A2991 RMK A01 T02100157  RH  072%=      5-min Rain = 0
KDC1 260743Z 24006KT 21/16 A2991 RMK A01 T02100157  RH  072%=      5-min Rain = 0
KDC1 260744Z 24005KT 21/16 A2991 RMK A01 T02100157  RH  072%=      5-min Rain = 0
KDC1 260745Z 23005KT 21/16 A2991 RMK A01 T02100158  RH  072%=      5-min Rain = 0
KDC1 260746Z 24006KT 21/16 A2991 RMK A01 T02100158  RH  072%=      5-min Rain = 0
KDC1 260747Z 24006KT 21/16 A2991 RMK A01 T02100157  RH  072%=      5-min Rain = 0
KDC1 260748Z 24006KT 21/16 A2991 RMK A01 T02110157  RH  071%=      5-min Rain = 0
KDC1 260749Z 24006KT 21/16 A2991 RMK A01 T02120157  RH  071%=      5-min Rain = 0
KDC1 260750Z 23006KT 21/16 A2991 RMK A01 T02130157  RH  070%=      5-min Rain = 0
KDC1 260751Z 24005KT 21/16 A2991 RMK A01 T02130157  RH  070%=      5-min Rain = 0
KDC1 260752Z 24006KT 21/16 A2991 RMK A01 T02130157  RH  070%=      5-min Rain = 0
KDC1 260753Z 23006KT 21/16 A2991 RMK A01 T02110156  RH  071%=      5-min Rain = 0
KDC1 260754Z 24006KT 21/16 A2991 RMK A01 T02100156  RH  071%=      5-min Rain = 0
KDC1 260755Z 24006KT 21/16 A2991 RMK A01 T02080156  RH  072%=      5-min Rain = 0
KDC1 260756Z 24006KT 21/16 A2991 RMK A01 T02070155  RH  072%=      5-min Rain = 0
KDC1 260757Z 23005KT 21/16 A2991 RMK A01 T02070155  RH  072%=      5-min Rain = 0
KDC1 260758Z 22006KT 21/16 A2991 RMK A01 T02070156  RH  072%=      5-min Rain = 0
KDC1 260759Z 23004KT 21/16 A2991 RMK A01 T02080156  RH  072%=      5-min Rain = 0
KDC1 260800Z 22005KT 21/16 A2991 RMK A01 T02080156  RH  072%=      5-min Rain = 0
KDC1 260801Z 22005KT 21/16 A2991 RMK A01 T02090157  RH  072%=      5-min Rain = 0
KDC1 260802Z 22004KT 21/16 A2991 RMK A01 T02100157  RH  072%=      5-min Rain = 0
KDC1 260803Z 23004KT 21/16 A2991 RMK A01 T02110158  RH  071%=      5-min Rain = 0
KDC1 260804Z 23004KT 21/16 A2991 RMK A01 T02120157  RH  071%=      5-min Rain = 0
KDC1 260805Z 24004KT 21/16 A2991 RMK A01 T02130158  RH  071%=      5-min Rain = 0
KDC1 260806Z 24005KT 21/16 A2991 RMK A01 T02120158  RH  071%=      5-min Rain = 0
KDC1 260807Z 24004KT 21/16 A2991 RMK A01 T02090157  RH  072%=      5-min Rain = 0
KDC1 260808Z 24004KT 21/16 A2991 RMK A01 T02070157  RH  073%=      5-min Rain = 0
KDC1 260809Z 22004KT 21/16 A2991 RMK A01 T02060156  RH  073%=      5-min Rain = 0
KDC1 260810Z 24004KT 21/16 A2991 RMK A01 T02050156  RH  073%=      5-min Rain = 0
KDC1 260811Z 23005KT 20/16 A2991 RMK A01 T02040156  RH  073%=      5-min Rain = 0
KDC1 260812Z 23004KT 20/16 A2991 RMK A01 T02040156  RH  074%=      5-min Rain = 0
KDC1 260813Z 23005KT 20/16 A2991 RMK A01 T02030155  RH  074%=      5-min Rain = 0
KDC1 260814Z 23005KT 20/16 A2991 RMK A01 T02020155  RH  074%=      5-min Rain = 0
KDC1 260815Z 22006KT 20/16 A2991 RMK A01 T02020155  RH  075%=      5-min Rain = 0
KDC1 260816Z 22005KT 20/16 A2991 RMK A01 T02010155  RH  075%=      5-min Rain = 0
KDC1 260817Z 22005KT 20/16 A2991 RMK A01 T02010155  RH  075%=      5-min Rain = 0
KDC1 260818Z 22004KT 20/16 A2991 RMK A01 T02010155  RH  075%=      5-min Rain = 0
KDC1 260819Z 22005KT 20/16 A2991 RMK A01 T02010155  RH  075%=      5-min Rain = 0
KDC1 260820Z 22005KT 20/16 A2991 RMK A01 T02010155  RH  075%=      5-min Rain = 0
KDC1 260821Z 22005KT 20/16 A2991 RMK A01 T02020155  RH  074%=      5-min Rain = 0
KDC1 260822Z 21005KT 20/16 A2991 RMK A01 T02030156  RH  074%=      5-min Rain = 0
KDC1 260823Z 22005KT 20/16 A2991 RMK A01 T02040155  RH  074%=      5-min Rain = 0
KDC1 260824Z 22006KT 20/16 A2991 RMK A01 T02040155  RH  073%=      5-min Rain = 0
KDC1 260825Z 22005KT 21/16 A2991 RMK A01 T02050156  RH  073%=      5-min Rain = 0
KDC1 260826Z 22005KT 21/16 A2992 RMK A01 T02050156  RH  073%=      5-min Rain = 0
KDC1 260827Z 22004KT 21/16 A2992 RMK A01 T02050156  RH  073%=      5-min Rain = 0
KDC1 260828Z 23004KT 21/16 A2992 RMK A01 T02050156  RH  073%=      5-min Rain = 0
KDC1 260829Z 23004KT 21/16 A2992 RMK A01 T02050156  RH  073%=      5-min Rain = 0
KDC1 260830Z 23004KT 20/16 A2992 RMK A01 T02040155  RH  074%=      5-min Rain = 0
KDC1 260831Z 23005KT 20/16 A2992 RMK A01 T02010155  RH  075%=      5-min Rain = 0
KDC1 260832Z 23004KT 20/16 A2992 RMK A01 T02000155  RH  076%=      5-min Rain = 0
KDC1 260833Z 23004KT 20/16 A2992 RMK A01 T01990156  RH  076%=      5-min Rain = 0
KDC1 260834Z 22004KT 20/16 A2992 RMK A01 T01980155  RH  076%=      5-min Rain = 0
KDC1 260835Z 22003KT 20/16 A2992 RMK A01 T01970156  RH  077%=      5-min Rain = 0
KDC1 260836Z 22004KT 20/16 A2992 RMK A01 T01970156  RH  077%=      5-min Rain = 0
KDC1 260837Z 21003KT 20/16 A2992 RMK A01 T01970156  RH  077%=      5-min Rain = 0
KDC1 260838Z 22004KT 20/16 A2992 RMK A01 T01970156  RH  077%=      5-min Rain = 0
KDC1 260839Z 21004KT 20/16 A2992 RMK A01 T01970156  RH  077%=      5-min Rain = 0
KDC1 260840Z 21004KT 20/16 A2992 RMK A01 T01970157  RH  078%=      5-min Rain = 0
KDC1 260841Z 21004KT 20/16 A2992 RMK A01 T01980156  RH  077%=      5-min Rain = 0
KDC1 260842Z 20003KT 20/16 A2992 RMK A01 T01990156  RH  077%=      5-min Rain = 0
KDC1 260843Z 21005KT 20/16 A2992 RMK A01 T01990158  RH  077%=      5-min Rain = 0
KDC1 260844Z 21004KT 20/16 A2992 RMK A01 T02030160  RH  076%=      5-min Rain = 0
KDC1 260845Z 20004KT 21/16 A2992 RMK A01 T02050160  RH  075%=      5-min Rain = 0
KDC1 260846Z 20004KT 21/16 A2992 RMK A01 T02070161  RH  075%=      5-min Rain = 0
KDC1 260847Z 20005KT 21/16 A2992 RMK A01 T02090162  RH  074%=      5-min Rain = 0
KDC1 260848Z 20004KT 21/16 A2992 RMK A01 T02110162  RH  074%=      5-min Rain = 0
KDC1 260849Z 21003KT 21/16 A2992 RMK A01 T02120162  RH  073%=      5-min Rain = 0
KDC1 260850Z 21003KT 21/16 A2992 RMK A01 T02120162  RH  073%=      5-min Rain = 0
KDC1 260851Z 20004KT 21/16 A2992 RMK A01 T02130161  RH  072%=      5-min Rain = 0
KDC1 260852Z 20003KT 21/16 A2992 RMK A01 T02110161  RH  073%=      5-min Rain = 0
KDC1 260853Z 21003KT 21/16 A2992 RMK A01 T02100162  RH  074%=      5-min Rain = 0
KDC1 260854Z 20002KT 21/16 A2992 RMK A01 T02090158  RH  072%=      5-min Rain = 0
KDC1 260855Z 21003KT 20/16 A2992 RMK A01 T02040157  RH  075%=      5-min Rain = 0
KDC1 260856Z 20003KT 20/16 A2992 RMK A01 T02000158  RH  076%=      5-min Rain = 0
KDC1 260857Z 21003KT 20/16 A2992 RMK A01 T01980157  RH  077%=      5-min Rain = 0
KDC1 260858Z 23003KT 20/16 A2992 RMK A01 T01960158  RH  078%=      5-min Rain = 0
KDC1 260859Z 23004KT 20/16 A2992 RMK A01 T01950158  RH  079%=      5-min Rain = 0
KDC1 260900Z 22005KT 19/16 A2992 RMK A01 T01940159  RH  080%=      5-min Rain = 0
KDC1 260901Z 21005KT 20/16 A2992 RMK A01 T01960160  RH  080%=      5-min Rain = 0
KDC1 260902Z 22004KT 20/16 A2992 RMK A01 T01970159  RH  079%=      5-min Rain = 0
KDC1 260903Z 21004KT 20/16 A2992 RMK A01 T01980159  RH  078%=      5-min Rain = 0
KDC1 260904Z 23003KT 20/16 A2992 RMK A01 T01990158  RH  077%=      5-min Rain = 0
KDC1 260905Z 22004KT 20/16 A2992 RMK A01 T01990157  RH  077%=      5-min Rain = 0
KDC1 260906Z 21003KT 20/16 A2992 RMK A01 T01980156  RH  077%=      5-min Rain = 0
KDC1 260907Z 21004KT 20/16 A2992 RMK A01 T01980156  RH  077%=      5-min Rain = 0
KDC1 260908Z 19004KT 20/16 A2991 RMK A01 T01980157  RH  077%=      5-min Rain = 0
KDC1 260909Z 19003KT 20/16 A2991 RMK A01 T01980157  RH  077%=      5-min Rain = 0
KDC1 260910Z 19004KT 20/16 A2991 RMK A01 T01990157  RH  077%=      5-min Rain = 0
KDC1 260911Z 20003KT 20/16 A2991 RMK A01 T01990158  RH  077%=      5-min Rain = 0
KDC1 260912Z 19003KT 20/16 A2992 RMK A01 T01990157  RH  077%=      5-min Rain = 0
KDC1 260913Z 20003KT 20/16 A2992 RMK A01 T01990158  RH  077%=      5-min Rain = 0
KDC1 260914Z 20003KT 20/16 A2992 RMK A01 T01990158  RH  077%=      5-min Rain = 0
KDC1 260915Z 20003KT 20/16 A2992 RMK A01 T02000158  RH  077%=      5-min Rain = 0
KDC1 260916Z 21003KT 20/16 A2992 RMK A01 T02000158  RH  077%=      5-min Rain = 0
KDC1 260917Z 21003KT 20/16 A2992 RMK A01 T02000158  RH  077%=      5-min Rain = 0
KDC1 260918Z 21004KT 20/16 A2992 RMK A01 T02010158  RH  076%=      5-min Rain = 0
KDC1 260919Z 22004KT 20/16 A2992 RMK A01 T02020157  RH  075%=      5-min Rain = 0
KDC1 260920Z 21004KT 20/16 A2992 RMK A01 T02020156  RH  075%=      5-min Rain = 0
KDC1 260921Z 20003KT 20/16 A2992 RMK A01 T02010156  RH  075%=      5-min Rain = 0
KDC1 260922Z 20004KT 20/16 A2992 RMK A01 T02010157  RH  076%=      5-min Rain = 0
KDC1 260923Z 19004KT 20/16 A2992 RMK A01 T02020157  RH  075%=      5-min Rain = 0
KDC1 260924Z 20004KT 20/16 A2992 RMK A01 T02020157  RH  075%=      5-min Rain = 0
KDC1 260925Z 20003KT 20/16 A2992 RMK A01 T02020157  RH  075%=      5-min Rain = 0
KDC1 260926Z 19003KT 20/16 A2992 RMK A01 T02030158  RH  075%=      5-min Rain = 0
KDC1 260927Z 19003KT 20/16 A2992 RMK A01 T02030158  RH  076%=      5-min Rain = 0
KDC1 260928Z 19004KT 20/16 A2993 RMK A01 T02030159  RH  076%=      5-min Rain = 0
KDC1 260929Z 19003KT 21/16 A2993 RMK A01 T02050160  RH  075%=      5-min Rain = 0
KDC1 260930Z 20004KT 21/16 A2993 RMK A01 T02050158  RH  075%=      5-min Rain = 0
KDC1 260931Z 21003KT 20/16 A2993 RMK A01 T02040159  RH  075%=      5-min Rain = 0
KDC1 260932Z 22004KT 20/16 A2993 RMK A01 T02030158  RH  075%=      5-min Rain = 0
KDC1 260933Z 24003KT 20/16 A2993 RMK A01 T02030157  RH  075%=      5-min Rain = 0
KDC1 260934Z 22004KT 20/15 A2994 RMK A01 T02000154  RH  075%=      5-min Rain = 0
KDC1 260935Z 21005KT 20/15 A2994 RMK A01 T01980154  RH  076%=      5-min Rain = 0
KDC1 260936Z 19004KT 20/16 A2994 RMK A01 T01980156  RH  077%=      5-min Rain = 0
KDC1 260937Z 19004KT 20/16 A2993 RMK A01 T01990157  RH  077%=      5-min Rain = 0
KDC1 260938Z 19004KT 20/16 A2993 RMK A01 T02000158  RH  076%=      5-min Rain = 0
KDC1 260939Z 20003KT 20/16 A2993 RMK A01 T02010158  RH  076%=      5-min Rain = 0
KDC1 260940Z 19003KT 20/16 A2993 RMK A01 T02020157  RH  076%=      5-min Rain = 0
KDC1 260941Z 21001KT 20/16 A2992 RMK A01 T02020158  RH  076%=      5-min Rain = 0
KDC1 260942Z 22001KT 20/16 A2992 RMK A01 T02010155  RH  075%=      5-min Rain = 0
KDC1 260943Z 21001KT 20/15 A2992 RMK A01 T01990153  RH  075%=      5-min Rain = 0
KDC1 260944Z 22001KT 20/15 A2992 RMK A01 T01960152  RH  076%=      5-min Rain = 0
KDC1 260945Z 22002KT 20/15 A2992 RMK A01 T01950152  RH  076%=      5-min Rain = 0
KDC1 260946Z 21002KT 19/15 A2992 RMK A01 T01940152  RH  076%=      5-min Rain = 0
KDC1 260947Z 22002KT 19/15 A2992 RMK A01 T01930152  RH  077%=      5-min Rain = 0
KDC1 260948Z 25002KT 19/15 A2992 RMK A01 T01920152  RH  077%=      5-min Rain = 0
KDC1 260949Z 26004KT 19/15 A2992 RMK A01 T01910152  RH  078%=      5-min Rain = 0
KDC1 260950Z 26004KT 19/15 A2992 RMK A01 T01880152  RH  079%=      5-min Rain = 0
KDC1 260951Z 25004KT 19/15 A2992 RMK A01 T01850151  RH  080%=      5-min Rain = 0
KDC1 260952Z 25004KT 18/15 A2992 RMK A01 T01830150  RH  081%=      5-min Rain = 0
KDC1 260953Z 24005KT 18/15 A2992 RMK A01 T01820150  RH  082%=      5-min Rain = 0
KDC1 260954Z 24004KT 18/15 A2992 RMK A01 T01810150  RH  082%=      5-min Rain = 0
KDC1 260955Z 23004KT 18/15 A2992 RMK A01 T01830154  RH  083%=      5-min Rain = 0
KDC1 260956Z 22004KT 19/16 A2992 RMK A01 T01860155  RH  082%=      5-min Rain = 0
KDC1 260957Z 21005KT 19/16 A2993 RMK A01 T01880156  RH  081%=      5-min Rain = 0
KDC1 260958Z 21005KT 19/16 A2993 RMK A01 T01910158  RH  081%=      5-min Rain = 0
KDC1 260959Z 21005KT 20/16 A2993 RMK A01 T01950159  RH  080%=      5-min Rain = 0
KDC1 261000Z 19004KT 20/16 A2993 RMK A01 T01970161  RH  079%=      5-min Rain = 0
KDC1 261001Z 20005KT 20/16 A2993 RMK A01 T02000161  RH  078%=      5-min Rain = 0
KDC1 261002Z 19005KT 20/16 A2993 RMK A01 T02010160  RH  077%=      5-min Rain = 0
KDC1 261003Z 19006KT 20/16 A2993 RMK A01 T02020160  RH  077%=      5-min Rain = 0
KDC1 261004Z 20006KT 20/16 A2993 RMK A01 T02030161  RH  076%=      5-min Rain = 0
KDC1 261005Z 20005KT 20/16 A2993 RMK A01 T02040161  RH  076%=      5-min Rain = 0
KDC1 261006Z 20004KT 21/16 A2993 RMK A01 T02050161  RH  076%=      5-min Rain = 0
KDC1 261007Z 20005KT 21/16 A2993 RMK A01 T02050161  RH  076%=      5-min Rain = 0
KDC1 261008Z 21004KT 21/16 A2993 RMK A01 T02050161  RH  076%=      5-min Rain = 0
KDC1 261009Z 21004KT 21/16 A2993 RMK A01 T02060160  RH  075%=      5-min Rain = 0
KDC1 261010Z 21004KT 21/16 A2993 RMK A01 T02060160  RH  075%=      5-min Rain = 0
KDC1 261011Z 22004KT 21/16 A2993 RMK A01 T02050160  RH  075%=      5-min Rain = 0
KDC1 261012Z 22004KT 20/16 A2993 RMK A01 T02040158  RH  075%=      5-min Rain = 0
KDC1 261013Z 21004KT 20/16 A2993 RMK A01 T02030158  RH  075%=      5-min Rain = 0
KDC1 261014Z 21003KT 20/16 A2993 RMK A01 T02010157  RH  076%=      5-min Rain = 0
KDC1 261015Z 21002KT 20/16 A2993 RMK A01 T02000157  RH  076%=      5-min Rain = 0
KDC1 261016Z 20003KT 20/16 A2993 RMK A01 T01980156  RH  077%=      5-min Rain = 0
KDC1 261017Z 21004KT 20/16 A2993 RMK A01 T01980157  RH  077%=      5-min Rain = 0
KDC1 261018Z 21004KT 20/16 A2994 RMK A01 T01970157  RH  078%=      5-min Rain = 0
KDC1 261019Z 23005KT 20/16 A2994 RMK A01 T01970156  RH  077%=      5-min Rain = 0
KDC1 261020Z 23005KT 20/16 A2994 RMK A01 T01960156  RH  077%=      5-min Rain = 0
KDC1 261021Z 23004KT 20/16 A2994 RMK A01 T01950155  RH  078%=      5-min Rain = 0
KDC1 261022Z 22003KT 19/16 A2994 RMK A01 T01940155  RH  078%=      5-min Rain = 0
KDC1 261023Z 23004KT 19/16 A2994 RMK A01 T01930155  RH  079%=      5-min Rain = 0
KDC1 261024Z 20003KT 19/16 A2994 RMK A01 T01930155  RH  079%=      5-min Rain = 0
KDC1 261025Z 20003KT 19/16 A2994 RMK A01 T01920155  RH  079%=      5-min Rain = 0
KDC1 261026Z 20003KT 19/16 A2994 RMK A01 T01910155  RH  080%=      5-min Rain = 0
KDC1 261027Z 19003KT 19/16 A2994 RMK A01 T01920156  RH  080%=      5-min Rain = 0
KDC1 261028Z 19002KT 19/16 A2994 RMK A01 T01910156  RH  080%=      5-min Rain = 0
KDC1 261029Z 20003KT 19/16 A2994 RMK A01 T01920156  RH  080%=      5-min Rain = 0
KDC1 261030Z 20002KT 19/16 A2994 RMK A01 T01920156  RH  080%=      5-min Rain = 0
KDC1 261031Z 19002KT 19/16 A2994 RMK A01 T01910156  RH  080%=      5-min Rain = 0
KDC1 261032Z 21002KT 19/16 A2994 RMK A01 T01910155  RH  080%=      5-min Rain = 0
KDC1 261033Z 23003KT 19/16 A2994 RMK A01 T01920155  RH  079%=      5-min Rain = 0
KDC1 261034Z 21004KT 19/16 A2994 RMK A01 T01910155  RH  080%=      5-min Rain = 0
KDC1 261035Z 21003KT 19/16 A2994 RMK A01 T01910155  RH  080%=      5-min Rain = 0
KDC1 261036Z 20003KT 19/16 A2994 RMK A01 T01910155  RH  079%=      5-min Rain = 0
KDC1 261037Z 20002KT 19/15 A2994 RMK A01 T01910154  RH  079%=      5-min Rain = 0
KDC1 261038Z 23003KT 19/15 A2994 RMK A01 T01910154  RH  079%=      5-min Rain = 0
KDC1 261039Z 23003KT 19/15 A2994 RMK A01 T01910153  RH  079%=      5-min Rain = 0
KDC1 261040Z 23003KT 19/15 A2994 RMK A01 T01900152  RH  079%=      5-min Rain = 0
KDC1 261041Z 23003KT 19/15 A2994 RMK A01 T01880152  RH  080%=      5-min Rain = 0
KDC1 261042Z 21002KT 19/15 A2994 RMK A01 T01860152  RH  080%=      5-min Rain = 0
KDC1 261043Z 18002KT 19/15 A2994 RMK A01 T01850151  RH  081%=      5-min Rain = 0
KDC1 261044Z 18001KT 19/15 A2994 RMK A01 T01850152  RH  081%=      5-min Rain = 0
KDC1 261045Z 21002KT 19/15 A2994 RMK A01 T01850152  RH  081%=      5-min Rain = 0
KDC1 261046Z 21003KT 19/15 A2994 RMK A01 T01850152  RH  081%=      5-min Rain = 0
KDC1 261047Z 21003KT 19/15 A2994 RMK A01 T01850152  RH  081%=      5-min Rain = 0
KDC1 261048Z 21003KT 19/15 A2994 RMK A01 T01860152  RH  081%=      5-min Rain = 0
KDC1 261049Z 20001KT 19/15 A2994 RMK A01 T01860152  RH  080%=      5-min Rain = 0
KDC1 261050Z 23002KT 19/15 A2994 RMK A01 T01860151  RH  080%=      5-min Rain = 0
KDC1 261051Z 26003KT 19/15 A2994 RMK A01 T01860150  RH  080%=      5-min Rain = 0
KDC1 261052Z 25004KT 19/15 A2994 RMK A01 T01860149  RH  079%=      5-min Rain = 0
KDC1 261053Z 24004KT 18/15 A2994 RMK A01 T01840149  RH  080%=      5-min Rain = 0
KDC1 261054Z 23004KT 18/15 A2994 RMK A01 T01830148  RH  080%=      5-min Rain = 0
KDC1 261055Z 23003KT 18/15 A2994 RMK A01 T01820148  RH  081%=      5-min Rain = 0
KDC1 261056Z 24004KT 18/15 A2994 RMK A01 T01810149  RH  081%=      5-min Rain = 0
KDC1 261057Z 25004KT 18/15 A2994 RMK A01 T01810148  RH  081%=      5-min Rain = 0
KDC1 261058Z 27005KT 18/15 A2994 RMK A01 T01820148  RH  080%=      5-min Rain = 0
KDC1 261059Z 28005KT 18/15 A2994 RMK A01 T01810146  RH  080%=      5-min Rain = 0
KDC1 261100Z 27004KT 18/15 A2994 RMK A01 T01780146  RH  081%=      5-min Rain = 0
KDC1 261101Z 26003KT 18/15 A2994 RMK A01 T01770147  RH  082%=      5-min Rain = 0
KDC1 261102Z 26003KT 18/15 A2994 RMK A01 T01760146  RH  082%=      5-min Rain = 0
KDC1 261103Z 28004KT 18/15 A2994 RMK A01 T01750146  RH  083%=      5-min Rain = 0
KDC1 261104Z 28004KT 17/15 A2994 RMK A01 T01740145  RH  083%=      5-min Rain = 0
KDC1 261105Z 27004KT 17/15 A2994 RMK A01 T01730146  RH  084%=      5-min Rain = 0
KDC1 261106Z 26005KT 17/15 A2994 RMK A01 T01730146  RH  084%=      5-min Rain = 0
KDC1 261107Z 26004KT 17/15 A2994 RMK A01 T01730146  RH  084%=      5-min Rain = 0
KDC1 261108Z 27004KT 17/15 A2994 RMK A01 T01720146  RH  084%=      5-min Rain = 0
KDC1 261109Z 27004KT 17/15 A2994 RMK A01 T01720146  RH  084%=      5-min Rain = 0
KDC1 261110Z 27004KT 17/15 A2994 RMK A01 T01720146  RH  084%=      5-min Rain = 0
KDC1 261111Z 27003KT 17/14 A2994 RMK A01 T01710144  RH  084%=      5-min Rain = 0
KDC1 261112Z 27003KT 17/15 A2994 RMK A01 T01710145  RH  085%=      5-min Rain = 0
KDC1 261113Z 28003KT 17/15 A2994 RMK A01 T01700145  RH  085%=      5-min Rain = 0
KDC1 261114Z 29004KT 17/15 A2994 RMK A01 T01690145  RH  085%=      5-min Rain = 0
KDC1 261115Z 30004KT 17/14 A2994 RMK A01 T01690144  RH  085%=      5-min Rain = 0
KDC1 261116Z 30005KT 17/14 A2994 RMK A01 T01670143  RH  085%=      5-min Rain = 0
KDC1 261117Z 29005KT 17/14 A2994 RMK A01 T01670143  RH  086%=      5-min Rain = 0
KDC1 261118Z 29004KT 17/14 A2994 RMK A01 T01660142  RH  086%=      5-min Rain = 0
KDC1 261119Z 29003KT 17/14 A2994 RMK A01 T01650141  RH  086%=      5-min Rain = 0
KDC1 261120Z 29004KT 16/14 A2994 RMK A01 T01640141  RH  086%=      5-min Rain = 0
KDC1 261121Z 29004KT 16/14 A2994 RMK A01 T01640140  RH  086%=      5-min Rain = 0
KDC1 261122Z 28004KT 16/14 A2994 RMK A01 T01630139  RH  086%=      5-min Rain = 0
KDC1 261123Z 27004KT 16/14 A2994 RMK A01 T01630139  RH  086%=      5-min Rain = 0
KDC1 261124Z 27005KT 16/14 A2994 RMK A01 T01620139  RH  086%=      5-min Rain = 0
KDC1 261125Z 27004KT 16/14 A2994 RMK A01 T01630138  RH  086%=      5-min Rain = 0
KDC1 261126Z 27004KT 16/14 A2994 RMK A01 T01630137  RH  085%=      5-min Rain = 0
KDC1 261127Z 27004KT 16/14 A2994 RMK A01 T01620136  RH  084%=      5-min Rain = 0
KDC1 261128Z 27005KT 16/14 A2995 RMK A01 T01620136  RH  084%=      5-min Rain = 0
KDC1 261129Z 27006KT 16/13 A2995 RMK A01 T01620134  RH  084%=      5-min Rain = 0
KDC1 261130Z 27006KT 16/13 A2995 RMK A01 T01610132  RH  083%=      5-min Rain = 0
KDC1 261131Z 27005KT 16/13 A2995 RMK A01 T01600130  RH  082%=      5-min Rain = 0
KDC1 261132Z 28005KT 16/13 A2995 RMK A01 T01600128  RH  081%=      5-min Rain = 0
KDC1 261133Z 28005KT 16/13 A2995 RMK A01 T01600127  RH  081%=      5-min Rain = 0
KDC1 261134Z 28006KT 16/13 A2995 RMK A01 T01590126  RH  081%=      5-min Rain = 0
KDC1 261135Z 28006KT 16/12 A2995 RMK A01 T01580124  RH  081%=      5-min Rain = 0
KDC1 261136Z 27006KT 16/12 A2995 RMK A01 T01570122  RH  080%=      5-min Rain = 0
KDC1 261137Z 28005KT 16/12 A2995 RMK A01 T01560120  RH  079%=      5-min Rain = 0
KDC1 261138Z 28005KT 16/12 A2995 RMK A01 T01550117  RH  078%=      5-min Rain = 0
KDC1 261139Z 28005KT 16/12 A2995 RMK A01 T01550115  RH  077%=      5-min Rain = 0
KDC1 261140Z 29005KT 16/11 A2995 RMK A01 T01550112  RH  076%=      5-min Rain = 0
KDC1 261141Z 29005KT 16/11 A2995 RMK A01 T01550110  RH  074%=      5-min Rain = 0
KDC1 261142Z 28005KT 16/11 A2995 RMK A01 T01550108  RH  074%=      5-min Rain = 0
KDC1 261143Z 28005KT 15/11 A2995 RMK A01 T01540107  RH  074%=      5-min Rain = 0
KDC1 261144Z 28005KT 15/11 A2995 RMK A01 T01530106  RH  073%=      5-min Rain = 0
KDC1 261145Z 28005KT 15/10 A2995 RMK A01 T01530104  RH  072%=      5-min Rain = 0
KDC1 261146Z 28005KT 15/10 A2995 RMK A01 T01520102  RH  072%=      5-min Rain = 0
KDC1 261147Z 29005KT 15/10 A2995 RMK A01 T01520100  RH  071%=      5-min Rain = 0
KDC1 261148Z 30004KT 15/10 A2996 RMK A01 T01510098  RH  071%=      5-min Rain = 0
KDC1 261149Z 31004KT 15/10 A2996 RMK A01 T01510096  RH  070%=      5-min Rain = 0
KDC1 261150Z 32005KT 15/09 A2996 RMK A01 T01500092  RH  068%=      5-min Rain = 0
KDC1 261151Z 32005KT 15/09 A2996 RMK A01 T01500088  RH  066%=      5-min Rain = 0
KDC1 261152Z 32005KT 15/09 A2996 RMK A01 T01490086  RH  066%=      5-min Rain = 0
KDC1 261153Z 32005KT 15/09 A2996 RMK A01 T01490085  RH  065%=      5-min Rain = 0
KDC1 261154Z 33004KT 15/08 A2996 RMK A01 T01490083  RH  065%=      5-min Rain = 0
KDC1 261155Z 35003KT 15/08 A2996 RMK A01 T01480083  RH  065%=      5-min Rain = 0
KDC1 261156Z 35003KT 15/08 A2996 RMK A01 T01470082  RH  065%=      5-min Rain = 0
KDC1 261157Z 35004KT 15/08 A2996 RMK A01 T01460080  RH  065%=      5-min Rain = 0
KDC1 261158Z 36004KT 15/08 A2996 RMK A01 T01450079  RH  064%=      5-min Rain = 0
KDC1 261159Z 34005KT 14/08 A2996 RMK A01 T01440080  RH  065%=      5-min Rain = 0
KDC1 261200Z 33005KT 14/08 A2996 RMK A01 T01440079  RH  065%=      5-min Rain = 0
KDC1 261201Z 32005KT 14/08 A2996 RMK A01 T01440077  RH  064%=      5-min Rain = 0
KDC1 261202Z 32007KT 15/08 A2996 RMK A01 T01460078  RH  064%=      5-min Rain = 0
KDC1 261203Z 32007KT 15/08 A2996 RMK A01 T01490079  RH  063%=      5-min Rain = 0
KDC1 261204Z 33007KT 15/08 A2996 RMK A01 T01500077  RH  062%=      5-min Rain = 0
KDC1 261205Z 32009KT 15/07 A2996 RMK A01 T01520074  RH  060%=      5-min Rain = 0
KDC1 261206Z 32009KT 15/07 A2996 RMK A01 T01540070  RH  057%=      5-min Rain = 0
KDC1 261207Z 32009KT 16/07 A2996 RMK A01 T01580071  RH  056%=      5-min Rain = 0
KDC1 261208Z 31009KT 16/07 A2996 RMK A01 T01600065  RH  053%=      5-min Rain = 0
KDC1 261209Z 30009KT 16/06 A2996 RMK A01 T01610064  RH  053%=      5-min Rain = 0
KDC1 261210Z 30009KT 16/07 A2996 RMK A01 T01610065  RH  053%=      5-min Rain = 0
KDC1 261211Z 30009KT 16/06 A2996 RMK A01 T01600064  RH  053%=      5-min Rain = 0
KDC1 261212Z 31008KT 16/06 A2996 RMK A01 T01600061  RH  052%=      5-min Rain = 0
KDC1 261213Z 30008KT 16/06 A2996 RMK A01 T01600061  RH  052%=      5-min Rain = 0
KDC1 261214Z 30009KT 16/06 A2996 RMK A01 T01590060  RH  052%=      5-min Rain = 0
KDC1 261215Z 30008KT 16/06 A2996 RMK A01 T01580061  RH  052%=      5-min Rain = 0
KDC1 261216Z 30007KT 16/06 A2996 RMK A01 T01580060  RH  052%=      5-min Rain = 0
KDC1 261217Z 30007KT 16/06 A2996 RMK A01 T01570058  RH  052%=      5-min Rain = 0
KDC1 261218Z 31006KT 16/06 A2996 RMK A01 T01570060  RH  053%=      5-min Rain = 0
KDC1 261219Z 31006KT 16/06 A2996 RMK A01 T01560059  RH  053%=      5-min Rain = 0
KDC1 261220Z 31005KT 16/06 A2996 RMK A01 T01550059  RH  053%=      5-min Rain = 0
KDC1 261221Z 30005KT 15/06 A2996 RMK A01 T01530059  RH  053%=      5-min Rain = 0
KDC1 261222Z 30004KT 15/06 A2996 RMK A01 T01520058  RH  053%=      5-min Rain = 0
KDC1 261223Z 29004KT 15/06 A2997 RMK A01 T01510059  RH  054%=      5-min Rain = 0
KDC1 261224Z 28003KT 15/06 A2997 RMK A01 T01500061  RH  055%=      5-min Rain = 0
KDC1 261225Z 29002KT 15/06 A2997 RMK A01 T01490061  RH  055%=      5-min Rain = 0
KDC1 261226Z 31002KT 15/06 A2997 RMK A01 T01480060  RH  056%=      5-min Rain = 0
KDC1 261227Z 01002KT 15/06 A2997 RMK A01 T01480059  RH  055%=      5-min Rain = 0
KDC1 261228Z 30002KT 15/06 A2997 RMK A01 T01480059  RH  055%=      5-min Rain = 0
KDC1 261229Z 30002KT 15/06 A2997 RMK A01 T01480059  RH  055%=      5-min Rain = 0
KDC1 261230Z 31003KT 15/06 A2997 RMK A01 T01480061  RH  056%=      5-min Rain = 0
KDC1 261231Z 29003KT 15/06 A2997 RMK A01 T01490062  RH  056%=      5-min Rain = 0
KDC1 261232Z 29004KT 15/06 A2997 RMK A01 T01490062  RH  056%=      5-min Rain = 0
KDC1 261233Z 30003KT 15/06 A2997 RMK A01 T01490063  RH  056%=      5-min Rain = 0
KDC1 261234Z 29003KT 15/07 A2997 RMK A01 T01490066  RH  057%=      5-min Rain = 0
KDC1 261235Z 28003KT 15/07 A2997 RMK A01 T01490068  RH  058%=      5-min Rain = 0
KDC1 261236Z 28003KT 15/07 A2997 RMK A01 T01490069  RH  059%=      5-min Rain = 0
KDC1 261237Z 28003KT 15/07 A2998 RMK A01 T01490070  RH  059%=      5-min Rain = 0
KDC1 261238Z 28003KT 15/07 A2998 RMK A01 T01480070  RH  060%=      5-min Rain = 0
KDC1 261239Z 28004KT 15/07 A2998 RMK A01 T01470074  RH  061%=      5-min Rain = 0
KDC1 261240Z 28004KT 15/08 A2998 RMK A01 T01470077  RH  063%=      5-min Rain = 0
KDC1 261241Z 27005KT 15/08 A2998 RMK A01 T01460080  RH  064%=      5-min Rain = 0
KDC1 261242Z 27005KT 15/08 A2998 RMK A01 T01460081  RH  065%=      5-min Rain = 0
KDC1 261243Z 27004KT 15/08 A2998 RMK A01 T01450080  RH  065%=      5-min Rain = 0
KDC1 261244Z 27004KT 15/08 A2998 RMK A01 T01450080  RH  065%=      5-min Rain = 0
KDC1 261245Z 28004KT 15/08 A2998 RMK A01 T01450081  RH  065%=      5-min Rain = 0
KDC1 261246Z 29004KT 15/08 A2998 RMK A01 T01450082  RH  066%=      5-min Rain = 0
KDC1 261247Z 30004KT 15/08 A2998 RMK A01 T01450083  RH  066%=      5-min Rain = 0
KDC1 261248Z 29004KT 15/09 A2998 RMK A01 T01460085  RH  067%=      5-min Rain = 0
KDC1 261249Z 29004KT 15/09 A2998 RMK A01 T01460085  RH  067%=      5-min Rain = 0
KDC1 261250Z 28004KT 15/09 A2998 RMK A01 T01460086  RH  067%=      5-min Rain = 0
KDC1 261251Z 28003KT 15/09 A2998 RMK A01 T01460086  RH  067%=      5-min Rain = 0
KDC1 261252Z 28003KT 15/09 A2998 RMK A01 T01460087  RH  067%=      5-min Rain = 0
KDC1 261253Z 28003KT 15/09 A2998 RMK A01 T01460087  RH  067%=      5-min Rain = 0
KDC1 261254Z 29004KT 15/09 A2998 RMK A01 T01470087  RH  067%=      5-min Rain = 0
KDC1 261255Z 29004KT 15/09 A2998 RMK A01 T01470087  RH  067%=      5-min Rain = 0
KDC1 261256Z 29005KT 15/09 A2998 RMK A01 T01480087  RH  067%=      5-min Rain = 0
KDC1 261257Z 30005KT 15/08 A2998 RMK A01 T01480083  RH  065%=      5-min Rain = 0
KDC1 261258Z 30005KT 15/08 A2998 RMK A01 T01490080  RH  063%=      5-min Rain = 0
KDC1 261259Z 30005KT 15/08 A2998 RMK A01 T01500079  RH  063%=      5-min Rain = 0
KDC1 261300Z 30004KT 15/08 A2998 RMK A01 T01500077  RH  062%=      5-min Rain = 0
KDC1 261301Z 30004KT 15/07 A2998 RMK A01 T01510074  RH  060%=      5-min Rain = 0
KDC1 261302Z 29004KT 15/07 A2998 RMK A01 T01520072  RH  059%=      5-min Rain = 0
KDC1 261303Z 29004KT 15/07 A2998 RMK A01 T01520072  RH  058%=      5-min Rain = 0
KDC1 261304Z 29004KT 15/07 A2998 RMK A01 T01530073  RH  059%=      5-min Rain = 0
KDC1 261305Z 30005KT 15/07 A2998 RMK A01 T01530074  RH  059%=      5-min Rain = 0
KDC1 261306Z 30005KT 15/07 A2998 RMK A01 T01530072  RH  058%=      5-min Rain = 0
KDC1 261307Z 30004KT 15/07 A2998 RMK A01 T01530072  RH  058%=      5-min Rain = 0
KDC1 261308Z 30004KT 15/07 A2998 RMK A01 T01540073  RH  058%=      5-min Rain = 0
KDC1 261309Z 29003KT 15/07 A2998 RMK A01 T01540074  RH  059%=      5-min Rain = 0
KDC1 261310Z 28003KT 15/08 A2998 RMK A01 T01540076  RH  059%=      5-min Rain = 0
KDC1 261311Z 28002KT 15/08 A2998 RMK A01 T01540077  RH  060%=      5-min Rain = 0
KDC1 261312Z 30002KT 15/08 A2998 RMK A01 T01540077  RH  060%=      5-min Rain = 0
KDC1 261313Z 31002KT 16/08 A2998 RMK A01 T01550076  RH  059%=      5-min Rain = 0
KDC1 261314Z 32002KT 16/08 A2998 RMK A01 T01560076  RH  059%=      5-min Rain = 0
KDC1 261315Z 32002KT 16/08 A2998 RMK A01 T01560075  RH  058%=      5-min Rain = 0
KDC1 261316Z 32002KT 16/08 A2998 RMK A01 T01570076  RH  059%=      5-min Rain = 0
KDC1 261317Z 32002KT 16/08 A2998 RMK A01 T01570079  RH  060%=      5-min Rain = 0
KDC1 261318Z 31003KT 16/08 A2998 RMK A01 T01580080  RH  060%=      5-min Rain = 0
KDC1 261319Z 30003KT 16/08 A2998 RMK A01 T01590078  RH  058%=      5-min Rain = 0
KDC1 261320Z 31003KT 16/08 A2998 RMK A01 T01590078  RH  059%=      5-min Rain = 0
KDC1 261321Z 31003KT 16/08 A2998 RMK A01 T01590080  RH  059%=      5-min Rain = 0
KDC1 261322Z 30003KT 16/08 A2998 RMK A01 T01590082  RH  060%=      5-min Rain = 0
KDC1 261323Z 30003KT 16/08 A2999 RMK A01 T01590084  RH  061%=      5-min Rain = 0
KDC1 261324Z 30003KT 16/08 A2999 RMK A01 T01600084  RH  061%=      5-min Rain = 0
KDC1 261325Z 30002KT 16/09 A2999 RMK A01 T01600085  RH  061%=      5-min Rain = 0
KDC1 261326Z 30002KT 16/09 A2999 RMK A01 T01600085  RH  061%=      5-min Rain = 0
KDC1 261327Z 29002KT 16/09 A2999 RMK A01 T01610086  RH  061%=      5-min Rain = 0
KDC1 261328Z 29002KT 16/09 A2999 RMK A01 T01610086  RH  061%=      5-min Rain = 0
KDC1 261329Z 30003KT 16/09 A2999 RMK A01 T01620088  RH  061%=      5-min Rain = 0
KDC1 261330Z 31003KT 16/09 A2999 RMK A01 T01630089  RH  062%=      5-min Rain = 0
KDC1 261331Z 32003KT 16/09 A2999 RMK A01 T01630091  RH  062%=      5-min Rain = 0
KDC1 261332Z 33003KT 16/09 A2999 RMK A01 T01640092  RH  062%=      5-min Rain = 0
KDC1 261333Z 35003KT 16/09 A2999 RMK A01 T01640093  RH  063%=      5-min Rain = 0
KDC1 261334Z 00002KT 16/09 A2999 RMK A01 T01640094  RH  063%=      5-min Rain = 0
KDC1 261335Z 01002KT 17/10 A2999 RMK A01 T01650097  RH  064%=      5-min Rain = 0
KDC1 261336Z 35002KT 17/10 A2999 RMK A01 T01650097  RH  064%=      5-min Rain = 0
KDC1 261337Z 35002KT 17/10 A2999 RMK A01 T01660098  RH  064%=      5-min Rain = 0
KDC1 261338Z 34002KT 17/10 A2999 RMK A01 T01660099  RH  064%=      5-min Rain = 0
KDC1 261339Z 34003KT 17/10 A2999 RMK A01 T01670099  RH  064%=      5-min Rain = 0
KDC1 261340Z 33003KT 17/10 A2999 RMK A01 T01680100  RH  064%=      5-min Rain = 0
KDC1 261341Z 33003KT 17/10 A2999 RMK A01 T01690100  RH  064%=      5-min Rain = 0
KDC1 261342Z 33003KT 17/10 A2999 RMK A01 T01690101  RH  064%=      5-min Rain = 0
KDC1 261343Z 32002KT 17/10 A2999 RMK A01 T01710101  RH  064%=      5-min Rain = 0
KDC1 261344Z 31001KT 17/11 A2999 RMK A01 T01710105  RH  065%=      5-min Rain = 0
KDC1 261345Z 32002KT 17/11 A2999 RMK A01 T01720106  RH  065%=      5-min Rain = 0
KDC1 261346Z 34003KT 17/11 A2998 RMK A01 T01720107  RH  065%=      5-min Rain = 0
KDC1 261347Z 35003KT 17/11 A2998 RMK A01 T01720108  RH  066%=      5-min Rain = 0
KDC1 261348Z 00002KT 17/11 A2998 RMK A01 T01720108  RH  066%=      5-min Rain = 0
KDC1 261349Z 00003KT 17/11 A2999 RMK A01 T01730109  RH  066%=      5-min Rain = 0
KDC1 261350Z 00003KT 17/11 A2999 RMK A01 T01740105  RH  064%=      5-min Rain = 0
KDC1 261351Z 01002KT 18/11 A2999 RMK A01 T01750105  RH  064%=      5-min Rain = 0
KDC1 261352Z 01002KT 18/11 A2999 RMK A01 T01750105  RH  063%=      5-min Rain = 0
KDC1 261353Z 00001KT 18/11 A2999 RMK A01 T01760105  RH  063%=      5-min Rain = 0
KDC1 261354Z 01001KT 18/11 A2999 RMK A01 T01770105  RH  062%=      5-min Rain = 0
KDC1 261355Z 01003KT 18/10 A2999 RMK A01 T01780104  RH  062%=      5-min Rain = 0
KDC1 261356Z 02003KT 18/11 A2999 RMK A01 T01790106  RH  062%=      5-min Rain = 0
KDC1 261357Z 02003KT 18/11 A2999 RMK A01 T01800107  RH  063%=      5-min Rain = 0
KDC1 261358Z 02003KT 18/11 A2999 RMK A01 T01810109  RH  063%=      5-min Rain = 0
KDC1 261359Z 02003KT 18/11 A2999 RMK A01 T01810111  RH  064%=      5-min Rain = 0
KDC1 261400Z 03003KT 18/11 A2999 RMK A01 T01820112  RH  064%=      5-min Rain = 0
KDC1 261401Z 03003KT 18/11 A2999 RMK A01 T01820112  RH  064%=      5-min Rain = 0
KDC1 261402Z 03003KT 18/11 A2999 RMK A01 T01820113  RH  064%=      5-min Rain = 0
KDC1 261403Z 02003KT 18/11 A2999 RMK A01 T01830114  RH  064%=      5-min Rain = 0
KDC1 261404Z 02002KT 18/12 A2999 RMK A01 T01830116  RH  065%=      5-min Rain = 0
KDC1 261405Z 01002KT 18/12 A30 RMK A01 T01830117  RH  065%=      5-min Rain = 0
KDC1 261406Z 02002KT 18/12 A30 RMK A01 T01840117  RH  065%=      5-min Rain = 0
KDC1 261407Z 02002KT 18/12 A30 RMK A01 T01840118  RH  065%=      5-min Rain = 0
KDC1 261408Z 00001KT 19/12 A30 RMK A01 T01850120  RH  066%=      5-min Rain = 0
KDC1 261409Z 01000KT 19/12 A30 RMK A01 T01860122  RH  066%=      5-min Rain = 0
KDC1 261410Z 35000KT 19/12 A30 RMK A01 T01860123  RH  066%=      5-min Rain = 0
KDC1 261411Z 32000KT 19/13 A30 RMK A01 T01880125  RH  067%=      5-min Rain = 0
KDC1 261412Z 34001KT 19/13 A30 RMK A01 T01880126  RH  067%=      5-min Rain = 0
KDC1 261413Z 34001KT 19/13 A30 RMK A01 T01880128  RH  068%=      5-min Rain = 0
KDC1 261414Z 35001KT 19/13 A30 RMK A01 T01880129  RH  068%=      5-min Rain = 0
KDC1 261415Z 01001KT 19/13 A30 RMK A01 T01890129  RH  068%=      5-min Rain = 0
KDC1 261416Z 01002KT 19/13 A30 RMK A01 T01890131  RH  069%=      5-min Rain = 0
KDC1 261417Z 01002KT 19/13 A30 RMK A01 T01890133  RH  070%=      5-min Rain = 0
KDC1 261418Z 35001KT 19/14 A30 RMK A01 T01890137  RH  071%=      5-min Rain = 0
KDC1 261419Z 35001KT 19/14 A30 RMK A01 T01890137  RH  072%=      5-min Rain = 0
KDC1 261420Z 33001KT 19/14 A30 RMK A01 T01890137  RH  072%=      5-min Rain = 0
KDC1 261421Z 32002KT 19/14 A30 RMK A01 T01900138  RH  072%=      5-min Rain = 0
KDC1 261422Z 33002KT 19/14 A30 RMK A01 T01900138  RH  072%=      5-min Rain = 0
KDC1 261423Z 35002KT 19/14 A30 RMK A01 T01900138  RH  072%=      5-min Rain = 0
KDC1 261424Z 34002KT 19/14 A2999 RMK A01 T01910139  RH  072%=      5-min Rain = 0
KDC1 261425Z 35001KT 19/14 A30 RMK A01 T01910140  RH  072%=      5-min Rain = 0
KDC1 261426Z 33001KT 19/14 A30 RMK A01 T01920141  RH  072%=      5-min Rain = 0
KDC1 261427Z 32002KT 19/14 A30 RMK A01 T01930141  RH  072%=      5-min Rain = 0
KDC1 261428Z 32002KT 19/14 A30 RMK A01 T01930141  RH  072%=      5-min Rain = 0
KDC1 261429Z 34002KT 19/14 A30 RMK A01 T01940142  RH  072%=      5-min Rain = 0
KDC1 261430Z 33003KT 20/14 A30 RMK A01 T01950142  RH  072%=      5-min Rain = 0
KDC1 261431Z 33003KT 20/14 A30 RMK A01 T01950143  RH  072%=      5-min Rain = 0
KDC1 261432Z 32002KT 20/14 A30 RMK A01 T01950144  RH  072%=      5-min Rain = 0
KDC1 261433Z 33002KT 20/15 A30 RMK A01 T01960145  RH  072%=      5-min Rain = 0
KDC1 261434Z 32002KT 20/15 A30 RMK A01 T01960145  RH  072%=      5-min Rain = 0
KDC1 261435Z 32001KT 20/14 A30 RMK A01 T01970144  RH  072%=      5-min Rain = 0
KDC1 261436Z 31000KT 20/14 A30 RMK A01 T01970144  RH  072%=      5-min Rain = 0
KDC1 261437Z 00000KT 20/14 A30 RMK A01 T01970144  RH  071%=      5-min Rain = 0
KDC1 261438Z 00000KT 20/14 A30 RMK A01 T01980144  RH  071%=      5-min Rain = 0
KDC1 261439Z 31000KT 20/15 A30 RMK A01 T01990145  RH  071%=      5-min Rain = 0
KDC1 261440Z 31000KT 20/15 A30 RMK A01 T02000145  RH  071%=      5-min Rain = 0
KDC1 261441Z 34001KT 20/15 A30 RMK A01 T02010146  RH  070%=      5-min Rain = 0
KDC1 261442Z 35001KT 20/15 A30 RMK A01 T02010146  RH  071%=      5-min Rain = 0
KDC1 261443Z 35001KT 20/15 A30 RMK A01 T02020147  RH  071%=      5-min Rain = 0
KDC1 261444Z 33001KT 20/15 A30 RMK A01 T02020147  RH  071%=      5-min Rain = 0
KDC1 261445Z 30001KT 20/15 A3001 RMK A01 T02030147  RH  070%=      5-min Rain = 0
KDC1 261446Z 31002KT 20/15 A3001 RMK A01 T02030147  RH  070%=      5-min Rain = 0
KDC1 261447Z 31002KT 20/15 A30 RMK A01 T02030148  RH  070%=      5-min Rain = 0
KDC1 261448Z 30001KT 20/15 A30 RMK A01 T02030147  RH  070%=      5-min Rain = 0
KDC1 261449Z 31001KT 20/15 A30 RMK A01 T02030148  RH  071%=      5-min Rain = 0
KDC1 261450Z 29001KT 20/15 A30 RMK A01 T02030148  RH  070%=      5-min Rain = 0
KDC1 261451Z 27001KT 20/15 A3001 RMK A01 T02030148  RH  070%=      5-min Rain = 0
KDC1 261452Z 27001KT 20/15 A3001 RMK A01 T02030148  RH  070%=      5-min Rain = 0
KDC1 261453Z 26000KT 20/15 A3001 RMK A01 T02040148  RH  070%=      5-min Rain = 0
KDC1 261454Z 30000KT 20/15 A3001 RMK A01 T02040148  RH  070%=      5-min Rain = 0
KDC1 261455Z 29001KT 21/15 A3001 RMK A01 T02050148  RH  070%=      5-min Rain = 0
KDC1 261456Z 29000KT 21/15 A3001 RMK A01 T02060148  RH  069%=      5-min Rain = 0
KDC1 261457Z 29001KT 21/15 A30 RMK A01 T02060148  RH  069%=      5-min Rain = 0
KDC1 261458Z 30000KT 21/15 A30 RMK A01 T02070148  RH  069%=      5-min Rain = 0
KDC1 261459Z 26000KT 21/15 A30 RMK A01 T02070148  RH  069%=      5-min Rain = 0
KDC1 261500Z 25001KT 21/15 A30 RMK A01 T02080148  RH  069%=      5-min Rain = 0
KDC1 261501Z 25000KT 21/15 A3001 RMK A01 T02080148  RH  068%=      5-min Rain = 0
KDC1 261502Z 19000KT 21/15 A3001 RMK A01 T02090148  RH  068%=      5-min Rain = 0
KDC1 261503Z 23000KT 21/15 A3001 RMK A01 T02090148  RH  068%=      5-min Rain = 0
KDC1 261504Z 25000KT 21/15 A3001 RMK A01 T02100149  RH  068%=      5-min Rain = 0
KDC1 261505Z 00000KT 21/15 A3001 RMK A01 T02110150  RH  068%=      5-min Rain = 0
KDC1 261506Z 17000KT 21/15 A30 RMK A01 T02130151  RH  068%=      5-min Rain = 0
KDC1 261507Z 16001KT 21/15 A30 RMK A01 T02130152  RH  068%=      5-min Rain = 0
KDC1 261508Z 14000KT 22/15 A30 RMK A01 T02150154  RH  068%=      5-min Rain = 0
KDC1 261509Z 19002KT 22/15 A3001 RMK A01 T02160152  RH  067%=      5-min Rain = 0
KDC1 261510Z 19002KT 22/15 A3001 RMK A01 T02160151  RH  067%=      5-min Rain = 0
KDC1 261511Z 17001KT 22/15 A3001 RMK A01 T02150152  RH  067%=      5-min Rain = 0
KDC1 261512Z 16001KT 22/15 A3001 RMK A01 T02150153  RH  068%=      5-min Rain = 0
KDC1 261513Z 21001KT 22/15 A3001 RMK A01 T02160154  RH  068%=      5-min Rain = 0
KDC1 261514Z 18001KT 22/15 A3001 RMK A01 T02160154  RH  068%=      5-min Rain = 0
KDC1 261515Z 14000KT 22/15 A3001 RMK A01 T02150154  RH  068%=      5-min Rain = 0
KDC1 261516Z 24001KT 22/16 A30 RMK A01 T02160155  RH  068%=      5-min Rain = 0
KDC1 261517Z 22000KT 22/16 A30 RMK A01 T02160155  RH  068%=      5-min Rain = 0
KDC1 261518Z 18000KT 22/16 A30 RMK A01 T02170156  RH  068%=      5-min Rain = 0
KDC1 261519Z 17000KT 22/16 A30 RMK A01 T02170155  RH  068%=      5-min Rain = 0
KDC1 261520Z 15000KT 22/16 A30 RMK A01 T02170155  RH  068%=      5-min Rain = 0
KDC1 261521Z 22000KT 22/16 A30 RMK A01 T02170155  RH  068%=      5-min Rain = 0
KDC1 261522Z 25001KT 22/16 A30 RMK A01 T02170155  RH  068%=      5-min Rain = 0
KDC1 261523Z 26001KT 22/15 A3001 RMK A01 T02180154  RH  067%=      5-min Rain = 0
KDC1 261524Z 27002KT 22/15 A3001 RMK A01 T02180154  RH  067%=      5-min Rain = 0
KDC1 261525Z 25001KT 22/15 A3001 RMK A01 T02180154  RH  067%=      5-min Rain = 0
KDC1 261526Z 27002KT 22/15 A3001 RMK A01 T02190154  RH  066%=      5-min Rain = 0
KDC1 261527Z 26002KT 22/15 A3001 RMK A01 T02190153  RH  066%=      5-min Rain = 0
KDC1 261528Z 26002KT 22/15 A30 RMK A01 T02190152  RH  066%=      5-min Rain = 0
KDC1 261529Z 28001KT 22/15 A30 RMK A01 T02200153  RH  066%=      5-min Rain = 0
KDC1 261530Z 27002KT 22/15 A30 RMK A01 T02210154  RH  066%=      5-min Rain = 0
KDC1 261531Z 27002KT 22/15 A30 RMK A01 T02210154  RH  066%=      5-min Rain = 0
KDC1 261532Z 26002KT 22/15 A30 RMK A01 T02200152  RH  065%=      5-min Rain = 0
KDC1 261533Z 28002KT 22/15 A30 RMK A01 T02200153  RH  066%=      5-min Rain = 0
KDC1 261534Z 30002KT 22/16 A30 RMK A01 T02200155  RH  066%=      5-min Rain = 0
KDC1 261535Z 30002KT 22/16 A30 RMK A01 T02200155  RH  067%=      5-min Rain = 0
KDC1 261536Z 30002KT 22/16 A30 RMK A01 T02190156  RH  067%=      5-min Rain = 0
KDC1 261537Z 31003KT 22/16 A30 RMK A01 T02190156  RH  067%=      5-min Rain = 0
KDC1 261538Z 32003KT 22/16 A30 RMK A01 T02200156  RH  067%=      5-min Rain = 0
KDC1 261539Z 33004KT 22/16 A30 RMK A01 T02200157  RH  068%=      5-min Rain = 0
KDC1 261540Z 32004KT 22/16 A30 RMK A01 T02200155  RH  066%=      5-min Rain = 0
KDC1 261541Z 33004KT 22/16 A2999 RMK A01 T02200155  RH  066%=      5-min Rain = 0
KDC1 261542Z 34005KT 22/16 A2999 RMK A01 T02200156  RH  067%=      5-min Rain = 0
KDC1 261543Z 34005KT 22/16 A2999 RMK A01 T02210156  RH  067%=      5-min Rain = 0
KDC1 261544Z 33005KT 22/16 A2999 RMK A01 T02220157  RH  067%=      5-min Rain = 0
KDC1 261545Z 33005KT 22/16 A2999 RMK A01 T02230160  RH  067%=      5-min Rain = 0
KDC1 261546Z 34005KT 22/16 A2999 RMK A01 T02240162  RH  068%=      5-min Rain = 0
KDC1 261547Z 32004KT 22/16 A2999 RMK A01 T02230164  RH  069%=      5-min Rain = 0
KDC1 261548Z 33003KT 22/17 A30 RMK A01 T02230165  RH  069%=      5-min Rain = 0
KDC1 261549Z 33002KT 22/16 A30 RMK A01 T02230164  RH  069%=      5-min Rain = 0
KDC1 261550Z 34001KT 22/16 A30 RMK A01 T02230161  RH  068%=      5-min Rain = 0
KDC1 261551Z 09000KT 22/16 A30 RMK A01 T02240163  RH  068%=      5-min Rain = 0
KDC1 261552Z 12001KT 23/16 A30 RMK A01 T02260162  RH  067%=      5-min Rain = 0
KDC1 261553Z 15003KT 23/16 A30 RMK A01 T02270162  RH  067%=      5-min Rain = 0
KDC1 261554Z 15004KT 23/17 A30 RMK A01 T02270166  RH  068%=      5-min Rain = 0
KDC1 261555Z 14004KT 23/17 A3001 RMK A01 T02280167  RH  068%=      5-min Rain = 0
KDC1 261556Z 15005KT 23/17 A3001 RMK A01 T02280168  RH  069%=      5-min Rain = 0
KDC1 261557Z 14005KT 23/17 A3001 RMK A01 T02290166  RH  068%=      5-min Rain = 0
KDC1 261558Z 13004KT 23/16 A3001 RMK A01 T02290163  RH  066%=      5-min Rain = 0
KDC1 261559Z 13004KT 23/16 A3001 RMK A01 T02290161  RH  066%=      5-min Rain = 0
KDC1 261600Z 14003KT 23/16 A3001 RMK A01 T02290163  RH  066%=      5-min Rain = 0
KDC1 261601Z 15003KT 23/16 A30 RMK A01 T02290162  RH  066%=      5-min Rain = 0
KDC1 261602Z 15002KT 23/17 A30 RMK A01 T02290165  RH  067%=      5-min Rain = 0
KDC1 261603Z 15003KT 23/17 A30 RMK A01 T02290165  RH  067%=      5-min Rain = 0
KDC1 261604Z 14003KT 23/17 A30 RMK A01 T02300165  RH  067%=      5-min Rain = 0
KDC1 261605Z 14003KT 23/17 A30 RMK A01 T02300165  RH  067%=      5-min Rain = 0
KDC1 261606Z 13004KT 23/16 A30 RMK A01 T02300164  RH  066%=      5-min Rain = 0
KDC1 261607Z 13003KT 23/16 A30 RMK A01 T02310164  RH  066%=      5-min Rain = 0
KDC1 261608Z 13004KT 23/17 A30 RMK A01 T02310165  RH  066%=      5-min Rain = 0
KDC1 261609Z 13003KT 23/17 A30 RMK A01 T02310165  RH  066%=      5-min Rain = 0
KDC1 261610Z 13003KT 23/17 A30 RMK A01 T02310167  RH  067%=      5-min Rain = 0
KDC1 261611Z 13004KT 23/16 A30 RMK A01 T02310163  RH  066%=      5-min Rain = 0
KDC1 261612Z 12003KT 23/16 A30 RMK A01 T02310162  RH  065%=      5-min Rain = 0
KDC1 261613Z 13003KT 23/16 A30 RMK A01 T02300162  RH  066%=      5-min Rain = 0
KDC1 261614Z 12003KT 23/16 A30 RMK A01 T02310164  RH  066%=      5-min Rain = 0
KDC1 261615Z 13003KT 23/16 A30 RMK A01 T02310162  RH  065%=      5-min Rain = 0
KDC1 261616Z 12002KT 23/16 A30 RMK A01 T02310162  RH  065%=      5-min Rain = 0
KDC1 261617Z 14003KT 23/16 A30 RMK A01 T02320164  RH  066%=      5-min Rain = 0
KDC1 261618Z 14003KT 23/17 A30 RMK A01 T02320166  RH  067%=      5-min Rain = 0
KDC1 261619Z 14003KT 23/17 A30 RMK A01 T02320170  RH  068%=      5-min Rain = 0
KDC1 261620Z 14003KT 23/17 A30 RMK A01 T02330171  RH  068%=      5-min Rain = 0
KDC1 261621Z 15003KT 23/17 A30 RMK A01 T02340171  RH  068%=      5-min Rain = 0
KDC1 261622Z 14003KT 23/17 A30 RMK A01 T02340168  RH  066%=      5-min Rain = 0
KDC1 261623Z 15003KT 23/17 A30 RMK A01 T02340167  RH  066%=      5-min Rain = 0
KDC1 261624Z 17002KT 23/17 A30 RMK A01 T02340167  RH  066%=      5-min Rain = 0
KDC1 261625Z 16002KT 24/17 A30 RMK A01 T02350169  RH  067%=      5-min Rain = 0
KDC1 261626Z 15003KT 24/17 A30 RMK A01 T02350168  RH  066%=      5-min Rain = 0
KDC1 261627Z 14003KT 24/16 A30 RMK A01 T02350164  RH  064%=      5-min Rain = 0
KDC1 261628Z 14003KT 24/16 A30 RMK A01 T02360164  RH  064%=      5-min Rain = 0
KDC1 261629Z 15002KT 24/16 A30 RMK A01 T02350162  RH  064%=      5-min Rain = 0
KDC1 261630Z 15002KT 24/16 A30 RMK A01 T02350163  RH  064%=      5-min Rain = 0
KDC1 261631Z 14003KT 24/16 A30 RMK A01 T02350161  RH  063%=      5-min Rain = 0
KDC1 261632Z 13002KT 24/16 A30 RMK A01 T02350163  RH  064%=      5-min Rain = 0
KDC1 261633Z 11002KT 24/16 A30 RMK A01 T02360161  RH  063%=      5-min Rain = 0
KDC1 261634Z 11002KT 24/16 A30 RMK A01 T02350161  RH  063%=      5-min Rain = 0
KDC1 261635Z 10001KT 24/16 A30 RMK A01 T02360161  RH  063%=      5-min Rain = 0
KDC1 261636Z 09002KT 24/16 A30 RMK A01 T02370162  RH  063%=      5-min Rain = 0
KDC1 261637Z 09002KT 24/16 A30 RMK A01 T02380160  RH  062%=      5-min Rain = 0
KDC1 261638Z 09002KT 24/16 A30 RMK A01 T02380161  RH  062%=      5-min Rain = 0
KDC1 261639Z 10003KT 24/16 A30 RMK A01 T02380161  RH  062%=      5-min Rain = 0
KDC1 261640Z 09002KT 24/16 A30 RMK A01 T02380160  RH  062%=      5-min Rain = 0
KDC1 261641Z 09002KT 24/16 A30 RMK A01 T02380161  RH  062%=      5-min Rain = 0
KDC1 261642Z 10003KT 24/16 A30 RMK A01 T02390160  RH  061%=      5-min Rain = 0
KDC1 261643Z 10002KT 24/16 A30 RMK A01 T02390160  RH  061%=      5-min Rain = 0
KDC1 261644Z 10002KT 24/16 A30 RMK A01 T02390161  RH  062%=      5-min Rain = 0
KDC1 261645Z 13002KT 24/16 A30 RMK A01 T02390162  RH  062%=      5-min Rain = 0
KDC1 261646Z 12002KT 24/16 A30 RMK A01 T02380163  RH  063%=      5-min Rain = 0
KDC1 261647Z 11003KT 24/16 A30 RMK A01 T02380162  RH  062%=      5-min Rain = 0
KDC1 261648Z 13003KT 24/16 A30 RMK A01 T02380163  RH  063%=      5-min Rain = 0
KDC1 261649Z 15004KT 24/16 A30 RMK A01 T02390163  RH  063%=      5-min Rain = 0
KDC1 261650Z 14003KT 24/16 A30 RMK A01 T02390162  RH  062%=      5-min Rain = 0
KDC1 261651Z 13003KT 24/16 A30 RMK A01 T02390163  RH  062%=      5-min Rain = 0
KDC1 261652Z 13003KT 24/16 A30 RMK A01 T02400162  RH  062%=      5-min Rain = 0
KDC1 261653Z 12003KT 24/17 A30 RMK A01 T02400165  RH  063%=      5-min Rain = 0
KDC1 261654Z 12003KT 24/17 A30 RMK A01 T02400165  RH  063%=      5-min Rain = 0
KDC1 261655Z 12002KT 24/16 A30 RMK A01 T02400164  RH  062%=      5-min Rain = 0
KDC1 261656Z 12002KT 24/16 A30 RMK A01 T02400162  RH  062%=      5-min Rain = 0
KDC1 261657Z 12002KT 24/16 A30 RMK A01 T02400161  RH  061%=      5-min Rain = 0
KDC1 261658Z 11001KT 24/16 A30 RMK A01 T02410161  RH  061%=      5-min Rain = 0
KDC1 261659Z 10001KT 24/16 A30 RMK A01 T02410162  RH  061%=      5-min Rain = 0
KDC1 261700Z 09002KT 24/16 A30 RMK A01 T02410161  RH  061%=      5-min Rain = 0
KDC1 261701Z 09001KT 24/16 A30 RMK A01 T02420162  RH  061%=      5-min Rain = 0
KDC1 261702Z 08000KT 24/16 A30 RMK A01 T02410162  RH  061%=      5-min Rain = 0
KDC1 261703Z 08001KT 24/16 A2999 RMK A01 T02420162  RH  061%=      5-min Rain = 0
KDC1 261704Z 08000KT 24/16 A2999 RMK A01 T02430162  RH  060%=      5-min Rain = 0
KDC1 261705Z 12001KT 24/16 A2999 RMK A01 T02440163  RH  060%=      5-min Rain = 0
KDC1 261706Z 14002KT 25/17 A2999 RMK A01 T02460165  RH  061%=      5-min Rain = 0
KDC1 261707Z 15001KT 25/16 A2999 RMK A01 T02460164  RH  060%=      5-min Rain = 0
KDC1 261708Z 10000KT 25/16 A2999 RMK A01 T02460162  RH  060%=      5-min Rain = 0
KDC1 261709Z 08001KT 25/16 A2999 RMK A01 T02470161  RH  059%=      5-min Rain = 0
KDC1 261710Z 06000KT 25/16 A2999 RMK A01 T02470160  RH  058%=      5-min Rain = 0
KDC1 261711Z 10000KT 25/16 A2999 RMK A01 T02480159  RH  058%=      5-min Rain = 0
KDC1 261712Z 10002KT 25/16 A2999 RMK A01 T02500160  RH  058%=      5-min Rain = 0
KDC1 261713Z 10001KT 25/16 A2999 RMK A01 T02500159  RH  057%=      5-min Rain = 0
KDC1 261714Z 12001KT 25/16 A2999 RMK A01 T02500161  RH  058%=      5-min Rain = 0
KDC1 261715Z 11000KT 25/16 A2999 RMK A01 T02500160  RH  057%=      5-min Rain = 0
KDC1 261716Z 11000KT 25/16 A2999 RMK A01 T02510160  RH  057%=      5-min Rain = 0
KDC1 261717Z 08000KT 25/16 A2999 RMK A01 T02520158  RH  056%=      5-min Rain = 0
KDC1 261718Z 00000KT 25/16 A2999 RMK A01 T02530157  RH  055%=      5-min Rain = 0
KDC1 261719Z 00000KT 25/16 A2999 RMK A01 T02540156  RH  054%=      5-min Rain = 0
KDC1 261720Z 00000KT 26/16 A2999 RMK A01 T02560158  RH  054%=      5-min Rain = 0
KDC1 261721Z 10000KT 26/16 A2999 RMK A01 T02580159  RH  054%=      5-min Rain = 0
KDC1 261722Z 11002KT 26/16 A2999 RMK A01 T02590158  RH  054%=      5-min Rain = 0
KDC1 261723Z 13001KT 26/16 A2999 RMK A01 T02580156  RH  053%=      5-min Rain = 0
KDC1 261724Z 13001KT 26/16 A2999 RMK A01 T02570156  RH  054%=      5-min Rain = 0
KDC1 261725Z 15001KT 26/16 A2999 RMK A01 T02560156  RH  054%=      5-min Rain = 0
KDC1 261726Z 16001KT 26/16 A2999 RMK A01 T02560157  RH  054%=      5-min Rain = 0
KDC1 261727Z 15002KT 26/16 A2999 RMK A01 T02560159  RH  055%=      5-min Rain = 0
KDC1 261728Z 15002KT 26/16 A2999 RMK A01 T02570159  RH  055%=      5-min Rain = 0
KDC1 261729Z 16002KT 26/16 A2999 RMK A01 T02570158  RH  054%=      5-min Rain = 0
KDC1 261730Z 15001KT 26/16 A2999 RMK A01 T02570157  RH  054%=      5-min Rain = 0
KDC1 261731Z 17001KT 26/15 A2999 RMK A01 T02570154  RH  053%=      5-min Rain = 0
KDC1 261732Z 18001KT 26/15 A2999 RMK A01 T02580153  RH  052%=      5-min Rain = 0
KDC1 261733Z 15001KT 26/15 A2999 RMK A01 T02590154  RH  052%=      5-min Rain = 0
KDC1 261734Z 16001KT 26/15 A2999 RMK A01 T02590152  RH  052%=      5-min Rain = 0
KDC1 261735Z 14002KT 26/16 A2999 RMK A01 T02590156  RH  053%=      5-min Rain = 0
KDC1 261736Z 14001KT 26/15 A2999 RMK A01 T02600152  RH  051%=      5-min Rain = 0
KDC1 261737Z 14001KT 26/15 A2999 RMK A01 T02600152  RH  051%=      5-min Rain = 0
KDC1 261738Z 15001KT 26/15 A2999 RMK A01 T02610152  RH  051%=      5-min Rain = 0
KDC1 261739Z 17001KT 26/15 A2999 RMK A01 T02610152  RH  051%=      5-min Rain = 0
KDC1 261740Z 15001KT 26/15 A2999 RMK A01 T02610150  RH  051%=      5-min Rain = 0
KDC1 261741Z 14001KT 26/16 A2999 RMK A01 T02610155  RH  052%=      5-min Rain = 0
KDC1 261742Z 14001KT 26/16 A2999 RMK A01 T02620159  RH  053%=      5-min Rain = 0
KDC1 261743Z 12002KT 26/16 A2999 RMK A01 T02620161  RH  054%=      5-min Rain = 0
KDC1 261744Z 13002KT 26/16 A2999 RMK A01 T02630155  RH  051%=      5-min Rain = 0
KDC1 261745Z 14000KT 26/15 A2999 RMK A01 T02630152  RH  050%=      5-min Rain = 0
KDC1 261746Z 12001KT 26/15 A2999 RMK A01 T02640154  RH  051%=      5-min Rain = 0
KDC1 261747Z 12002KT 27/16 A2999 RMK A01 T02650161  RH  053%=      5-min Rain = 0
KDC1 261748Z 14002KT 27/16 A2999 RMK A01 T02670159  RH  052%=      5-min Rain = 0
KDC1 261749Z 13002KT 27/15 A2999 RMK A01 T02660149  RH  049%=      5-min Rain = 0
KDC1 261750Z 13002KT 27/15 A2999 RMK A01 T02660148  RH  048%=      5-min Rain = 0
KDC1 261751Z 12002KT 27/16 A2999 RMK A01 T02660155  RH  050%=      5-min Rain = 0
KDC1 261752Z 14002KT 27/16 A2998 RMK A01 T02660155  RH  050%=      5-min Rain = 0
KDC1 261753Z 16003KT 27/16 A2998 RMK A01 T02660162  RH  053%=      5-min Rain = 0
KDC1 261754Z 15002KT 27/16 A2998 RMK A01 T02660158  RH  051%=      5-min Rain = 0
KDC1 261755Z 15003KT 27/16 A2998 RMK A01 T02650159  RH  052%=      5-min Rain = 0
KDC1 261756Z 16003KT 27/16 A2998 RMK A01 T02650159  RH  052%=      5-min Rain = 0
KDC1 261757Z 16002KT 27/16 A2998 RMK A01 T02660162  RH  053%=      5-min Rain = 0
KDC1 261758Z 16002KT 27/16 A2998 RMK A01 T02670160  RH  052%=      5-min Rain = 0
KDC1 261759Z 14002KT 27/16 A2998 RMK A01 T02680162  RH  052%=      5-min Rain = 0
KDC1 261800Z 13002KT 27/16 A2998 RMK A01 T02690162  RH  052%=      5-min Rain = 0
KDC1 261801Z 14002KT 27/16 A2998 RMK A01 T02690162  RH  052%=      5-min Rain = 0
KDC1 261802Z 13003KT 27/16 A2998 RMK A01 T02690159  RH  051%=      5-min Rain = 0
KDC1 261803Z 13003KT 27/15 A2998 RMK A01 T02680148  RH  048%=      5-min Rain = 0
KDC1 261804Z 14004KT 27/16 A2998 RMK A01 T02690156  RH  050%=      5-min Rain = 0
KDC1 261805Z 13005KT 27/16 A2998 RMK A01 T02700164  RH  052%=      5-min Rain = 0
KDC1 261806Z 13004KT 27/15 A2998 RMK A01 T02690152  RH  048%=      5-min Rain = 0
KDC1 261807Z 12004KT 27/16 A2998 RMK A01 T02690155  RH  050%=      5-min Rain = 0
KDC1 261808Z 13004KT 27/16 A2998 RMK A01 T02690157  RH  050%=      5-min Rain = 0
KDC1 261809Z 14004KT 27/16 A2998 RMK A01 T02700163  RH  052%=      5-min Rain = 0
KDC1 261810Z 15005KT 27/17 A2998 RMK A01 T02720168  RH  053%=      5-min Rain = 0
KDC1 261811Z 15004KT 27/16 A2997 RMK A01 T02740161  RH  050%=      5-min Rain = 0
KDC1 261812Z 14003KT 28/16 A2997 RMK A01 T02750157  RH  049%=      5-min Rain = 0
KDC1 261813Z 13004KT 28/17 A2997 RMK A01 T02750167  RH  052%=      5-min Rain = 0
KDC1 261814Z 12004KT 28/16 A2997 RMK A01 T02750157  RH  048%=      5-min Rain = 0
KDC1 261815Z 12004KT 27/16 A2997 RMK A01 T02740158  RH  049%=      5-min Rain = 0
KDC1 261816Z 12005KT 28/15 A2997 RMK A01 T02760148  RH  046%=      5-min Rain = 0
KDC1 261817Z 11004KT 28/15 A2997 RMK A01 T02770145  RH  044%=      5-min Rain = 0
KDC1 261818Z 10003KT 28/15 A2997 RMK A01 T02760146  RH  045%=      5-min Rain = 0
KDC1 261819Z 12003KT 28/15 A2997 RMK A01 T02770151  RH  046%=      5-min Rain = 0
KDC1 261820Z 12002KT 28/15 A2997 RMK A01 T02790150  RH  045%=      5-min Rain = 0
KDC1 261821Z 11004KT 28/15 A2997 RMK A01 T02800148  RH  044%=      5-min Rain = 0
KDC1 261822Z 10002KT 28/14 A2997 RMK A01 T02810136  RH  041%=      5-min Rain = 0
KDC1 261823Z 12004KT 28/13 A2997 RMK A01 T02810129  RH  039%=      5-min Rain = 0
KDC1 261824Z 12003KT 28/12 A2997 RMK A01 T02820124  RH  038%=      5-min Rain = 0
KDC1 261825Z 10004KT 28/13 A2997 RMK A01 T02820127  RH  038%=      5-min Rain = 0
KDC1 261826Z 09004KT 28/12 A2997 RMK A01 T02820118  RH  036%=      5-min Rain = 0
KDC1 261827Z 10004KT 28/12 A2997 RMK A01 T02820117  RH  036%=      5-min Rain = 0
KDC1 261828Z 11003KT 28/12 A2997 RMK A01 T02810117  RH  036%=      5-min Rain = 0
KDC1 261829Z 11003KT 28/12 A2997 RMK A01 T02820119  RH  036%=      5-min Rain = 0
KDC1 261830Z 11004KT 28/13 A2997 RMK A01 T02820130  RH  039%=      5-min Rain = 0
KDC1 261831Z 11004KT 28/12 A2997 RMK A01 T02830124  RH  038%=      5-min Rain = 0
KDC1 261832Z 10003KT 28/12 A2997 RMK A01 T02830117  RH  036%=      5-min Rain = 0
KDC1 261833Z 10002KT 28/11 A2997 RMK A01 T02830113  RH  035%=      5-min Rain = 0
KDC1 261834Z 13003KT 28/12 A2997 RMK A01 T02840116  RH  035%=      5-min Rain = 0
KDC1 261835Z 13003KT 29/10 A2997 RMK A01 T02860101  RH  032%=      5-min Rain = 0
KDC1 261836Z 12004KT 29/09 A2997 RMK A01 T02860086  RH  029%=      5-min Rain = 0
KDC1 261837Z 12003KT 29/08 A2996 RMK A01 T02870081  RH  027%=      5-min Rain = 0
KDC1 261838Z 11004KT 29/09 A2996 RMK A01 T02880085  RH  028%=      5-min Rain = 0
KDC1 261839Z 11004KT 29/07 A2996 RMK A01 T02900072  RH  025%=      5-min Rain = 0
KDC1 261840Z 10005KT 29/06 A2996 RMK A01 T02920062  RH  024%=      5-min Rain = 0
KDC1 261841Z 10003KT 29/05 A2996 RMK A01 T02920052  RH  022%=      5-min Rain = 0
KDC1 261842Z 10004KT 29/07 A2996 RMK A01 T02930065  RH  024%=      5-min Rain = 0
KDC1 261843Z 11004KT 29/06 A2996 RMK A01 T02940063  RH  023%=      5-min Rain = 0
KDC1 261844Z 10003KT 30/06 A2996 RMK A01 T02950055  RH  022%=      5-min Rain = 0
KDC1 261845Z 09003KT 30/06 A2996 RMK A01 T02960055  RH  022%=      5-min Rain = 0
KDC1 261846Z 08001KT 30/06 A2996 RMK A01 T02960055  RH  022%=      5-min Rain = 0
KDC1 261847Z 10001KT 30/05 A2996 RMK A01 T02960053  RH  022%=      5-min Rain = 0
KDC1 261848Z 08001KT 30/06 A2996 RMK A01 T02970057  RH  022%=      5-min Rain = 0
KDC1 261849Z 11003KT 30/06 A2996 RMK A01 T02980063  RH  023%=      5-min Rain = 0
KDC1 261850Z 10003KT 30/06 A2995 RMK A01 T02970057  RH  022%=      5-min Rain = 0
KDC1 261851Z 11003KT 30/06 A2995 RMK A01 T02970055  RH  022%=      5-min Rain = 0
KDC1 261852Z 11002KT 30/06 A2995 RMK A01 T02970056  RH  022%=      5-min Rain = 0
KDC1 261853Z 10003KT 30/06 A2995 RMK A01 T02960060  RH  022%=      5-min Rain = 0
KDC1 261854Z 10004KT 30/07 A2995 RMK A01 T02960070  RH  024%=      5-min Rain = 0
KDC1 261855Z 11003KT 30/06 A2995 RMK A01 T02960056  RH  022%=      5-min Rain = 0
KDC1 261856Z 10004KT 30/07 A2995 RMK A01 T02950067  RH  024%=      5-min Rain = 0
KDC1 261857Z 10004KT 30/06 A2995 RMK A01 T02970062  RH  023%=      5-min Rain = 0
KDC1 261858Z 08004KT 30/06 A2995 RMK A01 T03000061  RH  022%=      5-min Rain = 0
KDC1 261859Z 10003KT 30/06 A2995 RMK A01 T03010063  RH  022%=      5-min Rain = 0
KDC1 261900Z 10005KT 30/07 A2995 RMK A01 T03010070  RH  023%=      5-min Rain = 0
KDC1 261901Z 11004KT 30/07 A2995 RMK A01 T03020066  RH  023%=      5-min Rain = 0
KDC1 261902Z 10003KT 30/06 A2995 RMK A01 T03010060  RH  022%=      5-min Rain = 0
KDC1 261903Z 09002KT 30/06 A2995 RMK A01 T03000063  RH  022%=      5-min Rain = 0
KDC1 261904Z 09001KT 30/07 A2994 RMK A01 T02990068  RH  023%=      5-min Rain = 0
KDC1 261905Z 11003KT 30/09 A2994 RMK A01 T03010086  RH  026%=      5-min Rain = 0
KDC1 261906Z 11003KT 30/08 A2994 RMK A01 T03020080  RH  025%=      5-min Rain = 0
KDC1 261907Z 12003KT 30/09 A2994 RMK A01 T03030086  RH  026%=      5-min Rain = 0
KDC1 261908Z 12004KT 30/08 A2994 RMK A01 T03030076  RH  024%=      5-min Rain = 0
KDC1 261909Z 12003KT 30/07 A2994 RMK A01 T03040074  RH  024%=      5-min Rain = 0
KDC1 261910Z 13002KT 30/07 A2994 RMK A01 T03040072  RH  023%=      5-min Rain = 0
KDC1 261911Z 11005KT 30/08 A2994 RMK A01 T03040082  RH  025%=      5-min Rain = 0
KDC1 261912Z 11006KT 31/09 A2994 RMK A01 T03070087  RH  025%=      5-min Rain = 0
KDC1 261913Z 10004KT 31/07 A2994 RMK A01 T03090073  RH  023%=      5-min Rain = 0
KDC1 261914Z 11006G11KT 31/06 A2994 RMK A01 T03090064  RH  021%=      5-min Rain = 0
KDC1 261915Z 13005KT 31/06 A2994 RMK A01 T03070062  RH  021%=      5-min Rain = 0
KDC1 261916Z 12005KT 31/07 A2994 RMK A01 T03070070  RH  023%=      5-min Rain = 0
KDC1 261917Z 12003KT 31/07 A2994 RMK A01 T03060067  RH  022%=      5-min Rain = 0
KDC1 261918Z 11004KT 31/06 A2994 RMK A01 T03050062  RH  022%=      5-min Rain = 0
KDC1 261919Z 12005KT 31/07 A2994 RMK A01 T03050071  RH  023%=      5-min Rain = 0
KDC1 261920Z 10004KT 30/08 A2994 RMK A01 T03040075  RH  024%=      5-min Rain = 0
KDC1 261921Z 10004KT 31/06 A2993 RMK A01 T03050063  RH  022%=      5-min Rain = 0
KDC1 261922Z 10006KT 31/07 A2993 RMK A01 T03070074  RH  023%=      5-min Rain = 0
KDC1 261923Z 09007KT 31/07 A2993 RMK A01 T03090066  RH  022%=      5-min Rain = 0
KDC1 261924Z 08006KT 31/06 A2993 RMK A01 T03100058  RH  020%=      5-min Rain = 0
KDC1 261925Z 07004KT 31/06 A2993 RMK A01 T03090056  RH  020%=      5-min Rain = 0
KDC1 261926Z 07003KT 31/06 A2993 RMK A01 T03090058  RH  021%=      5-min Rain = 0
KDC1 261927Z 08005KT 31/06 A2993 RMK A01 T03090057  RH  020%=      5-min Rain = 0
KDC1 261928Z 10004KT 31/06 A2993 RMK A01 T03080057  RH  021%=      5-min Rain = 0
KDC1 261929Z 09004KT 31/06 A2993 RMK A01 T03080058  RH  021%=      5-min Rain = 0
KDC1 261930Z 10006KT 31/06 A2993 RMK A01 T03100061  RH  021%=      5-min Rain = 0
KDC1 261931Z 11007KT 31/07 A2993 RMK A01 T03120068  RH  022%=      5-min Rain = 0
KDC1 261932Z 11007KT 31/07 A2993 RMK A01 T03130067  RH  021%=      5-min Rain = 0
KDC1 261933Z 12005KT 31/07 A2993 RMK A01 T03100069  RH  022%=      5-min Rain = 0
KDC1 261934Z 12006KT 31/09 A2993 RMK A01 T03070088  RH  026%=      5-min Rain = 0
KDC1 261935Z 14005KT 31/10 A2993 RMK A01 T03050104  RH  029%=      5-min Rain = 0
KDC1 261936Z 13004KT 30/09 A2993 RMK A01 T03020085  RH  026%=      5-min Rain = 0
KDC1 261937Z 13005KT 30/10 A2993 RMK A01 T03010096  RH  028%=      5-min Rain = 0
KDC1 261938Z 14005KT 30/10 A2993 RMK A01 T03010101  RH  029%=      5-min Rain = 0
KDC1 261939Z 13004KT 30/10 A2993 RMK A01 T03010100  RH  029%=      5-min Rain = 0
KDC1 261940Z 13003KT 30/10 A2993 RMK A01 T03020096  RH  028%=      5-min Rain = 0
KDC1 261941Z 14005KT 30/11 A2992 RMK A01 T03040106  RH  030%=      5-min Rain = 0
KDC1 261942Z 12005KT 31/09 A2992 RMK A01 T03070085  RH  025%=      5-min Rain = 0
KDC1 261943Z 12006KT 31/08 A2992 RMK A01 T03080080  RH  024%=      5-min Rain = 0
KDC1 261944Z 12007KT 31/08 A2992 RMK A01 T03090075  RH  023%=      5-min Rain = 0
KDC1 261945Z 12006KT 31/10 A2992 RMK A01 T03080102  RH  028%=      5-min Rain = 0
KDC1 261946Z 14006KT 31/10 A2992 RMK A01 T03070101  RH  028%=      5-min Rain = 0
KDC1 261947Z 16007KT 31/11 A2992 RMK A01 T03080114  RH  030%=      5-min Rain = 0
KDC1 261948Z 15005KT 31/09 A2992 RMK A01 T03080086  RH  025%=      5-min Rain = 0
KDC1 261949Z 16006KT 31/11 A2992 RMK A01 T03080107  RH  029%=      5-min Rain = 0
KDC1 261950Z 16007KT 31/09 A2992 RMK A01 T03090091  RH  026%=      5-min Rain = 0
KDC1 261951Z 14006KT 31/09 A2992 RMK A01 T03110087  RH  025%=      5-min Rain = 0
KDC1 261952Z 13005KT 31/06 A2991 RMK A01 T03110062  RH  021%=      5-min Rain = 0
KDC1 261953Z 14003KT 31/05 A2991 RMK A01 T03120053  RH  020%=      5-min Rain = 0
KDC1 261954Z 15003KT 31/09 A2991 RMK A01 T03140094  RH  026%=      5-min Rain = 0
KDC1 261955Z 15002KT 32/09 A2991 RMK A01 T03150094  RH  026%=      5-min Rain = 0
KDC1 261956Z 14002KT 32/09 A2991 RMK A01 T03160087  RH  024%=      5-min Rain = 0
KDC1 261957Z 14002KT 32/09 A2991 RMK A01 T03180091  RH  025%=      5-min Rain = 0
KDC1 261958Z 12003KT 32/09 A2991 RMK A01 T03190091  RH  024%=      5-min Rain = 0
KDC1 261959Z 14003G8KT 32/10 A2991 RMK A01 T03190098  RH  026%=      5-min Rain = 0
KDC1 262000Z 16009KT 32/09 A2991 RMK A01 T03200089  RH  024%=      5-min Rain = 0
KDC1 262001Z 17008KT 32/07 A2991 RMK A01 T03230069  RH  021%=      5-min Rain = 0
KDC1 262002Z 18012KT 33/06 A299 RMK A01 T03250063  RH  020%=      5-min Rain = 0
KDC1 262003Z 19013G23KT 33/05 A299 RMK A01 T03260047  RH  017%=      5-min Rain = 0
KDC1 262004Z 20011G20KT 33/04 A299 RMK A01 T03270037  RH  016%=      5-min Rain = 0
KDC1 262005Z 21009G15KT 33/04 A299 RMK A01 T03280035  RH  016%=      5-min Rain = 0
KDC1 262006Z 22007KT 33/04 A299 RMK A01 T03300043  RH  017%=      5-min Rain = 0
KDC1 262007Z 21010KT 33/04 A299 RMK A01 T03320039  RH  016%=      5-min Rain = 0
KDC1 262008Z 20012G19KT 33/03 A299 RMK A01 T03320034  RH  015%=      5-min Rain = 0
KDC1 262009Z 20011KT 33/03 A299 RMK A01 T03310028  RH  015%=      5-min Rain = 0
KDC1 262010Z 21011G18KT 33/03 A299 RMK A01 T03300030  RH  015%=      5-min Rain = 0
KDC1 262011Z 24009G15KT 33/04 A299 RMK A01 T03290037  RH  016%=      5-min Rain = 0
KDC1 262012Z 24012KT 33/03 A299 RMK A01 T03310033  RH  015%=      5-min Rain = 0
KDC1 262013Z 22009G14KT 33/02 A299 RMK A01 T03290023  RH  014%=      5-min Rain = 0
KDC1 262014Z 22006KT 33/03 A299 RMK A01 T03280032  RH  015%=      5-min Rain = 0
KDC1 262015Z 23004KT 33/04 A299 RMK A01 T03270041  RH  017%=      5-min Rain = 0
KDC1 262016Z 19004KT 33/05 A299 RMK A01 T03290054  RH  018%=      5-min Rain = 0
KDC1 262017Z 19005KT 33/06 A299 RMK A01 T03300055  RH  018%=      5-min Rain = 0
KDC1 262018Z 19007KT 33/06 A299 RMK A01 T03310059  RH  018%=      5-min Rain = 0
KDC1 262019Z 19010G15KT 33/06 A299 RMK A01 T03310060  RH  018%=      5-min Rain = 0
KDC1 262020Z 18016KT 33/04 A299 RMK A01 T03300041  RH  016%=      5-min Rain = 0
KDC1 262021Z 20009KT 33/04 A299 RMK A01 T03250042  RH  017%=      5-min Rain = 0
KDC1 262022Z 19008G14KT 33/04 A299 RMK A01 T03260037  RH  016%=      5-min Rain = 0
KDC1 262023Z 19008KT 33/04 A299 RMK A01 T03290044  RH  017%=      5-min Rain = 0
KDC1 262024Z 18008KT 33/05 A299 RMK A01 T03310046  RH  017%=      5-min Rain = 0
KDC1 262025Z 19010KT 33/04 A299 RMK A01 T03330038  RH  016%=      5-min Rain = 0
KDC1 262026Z 18009KT 33/05 A2989 RMK A01 T03300049  RH  017%=      5-min Rain = 0
KDC1 262027Z 17011KT 33/04 A2989 RMK A01 T03260042  RH  017%=      5-min Rain = 0
KDC1 262028Z 16015KT 32/03 A2989 RMK A01 T03230029  RH  016%=      5-min Rain = 0
KDC1 262029Z 18020G28KT 32/05 A2988 RMK A01 T03230050  RH  018%=      5-min Rain = 0
KDC1 262030Z 19011KT 33/04 A2989 RMK A01 T03260038  RH  016%=      5-min Rain = 0
KDC1 262031Z 18016G22KT 33/04 A2989 RMK A01 T03300036  RH  016%=      5-min Rain = 0
KDC1 262032Z 20010G16KT 33/04 A2989 RMK A01 T03300042  RH  016%=      5-min Rain = 0
KDC1 262033Z 22010G15KT 33/04 A2989 RMK A01 T03310036  RH  016%=      5-min Rain = 0
KDC1 262034Z 22009G15KT 34/03 A2989 RMK A01 T03350032  RH  015%=      5-min Rain = 0
KDC1 262035Z 22008KT 34/03 A2989 RMK A01 T03350032  RH  015%=      5-min Rain = 0
KDC1 262036Z 19009G18KT 34/04 A2989 RMK A01 T03350036  RH  015%=      5-min Rain = 0
KDC1 262037Z 18018KT 34/04 A2989 RMK A01 T03350035  RH  015%=      5-min Rain = 0
KDC1 262038Z 19016G21KT 33/03 A2989 RMK A01 T03330028  RH  015%=      5-min Rain = 0
KDC1 262039Z 18014KT 33/04 A2989 RMK A01 T03320042  RH  016%=      5-min Rain = 0
KDC1 262040Z 19016KT 33/04 A2989 RMK A01 T03300036  RH  016%=      5-min Rain = 0
KDC1 262041Z 18015G23KT 33/03 A2989 RMK A01 T03260029  RH  015%=      5-min Rain = 0
KDC1 262042Z 18017KT 32/04 A2989 RMK A01 T03230038  RH  017%=      5-min Rain = 0
KDC1 262043Z 18012G18KT 32/03 A2989 RMK A01 T03210028  RH  016%=      5-min Rain = 0
KDC1 262044Z 17011KT 32/04 A2989 RMK A01 T03220041  RH  017%=      5-min Rain = 0
KDC1 262045Z 18011KT 32/04 A2989 RMK A01 T03230040  RH  017%=      5-min Rain = 0
KDC1 262046Z 18009KT 32/04 A2988 RMK A01 T03240036  RH  016%=      5-min Rain = 0
KDC1 262047Z 17010KT 33/04 A2988 RMK A01 T03250042  RH  017%=      5-min Rain = 0
KDC1 262048Z 18008KT 33/04 A2988 RMK A01 T03250040  RH  017%=      5-min Rain = 0
KDC1 262049Z 18006KT 33/05 A2988 RMK A01 T03250045  RH  017%=      5-min Rain = 0
KDC1 262050Z 19008G13KT 32/06 A2988 RMK A01 T03230059  RH  019%=      5-min Rain = 0
KDC1 262051Z 19008G13KT 32/03 A2988 RMK A01 T03220034  RH  016%=      5-min Rain = 0
KDC1 262052Z 20008KT 32/03 A2988 RMK A01 T03240029  RH  015%=      5-min Rain = 0
KDC1 262053Z 20006KT 33/03 A2988 RMK A01 T03260032  RH  016%=      5-min Rain = 0
KDC1 262054Z 21007KT 33/04 A2988 RMK A01 T03310038  RH  016%=      5-min Rain = 0
KDC1 262055Z 22008G13KT 33/04 A2988 RMK A01 T03330040  RH  016%=      5-min Rain = 0
KDC1 262056Z 22009G14KT 33/03 A2987 RMK A01 T03320030  RH  015%=      5-min Rain = 0
KDC1 262057Z 21009G15KT 33/03 A2987 RMK A01 T03310025  RH  014%=      5-min Rain = 0
KDC1 262058Z 20009G14KT 33/03 A2987 RMK A01 T03300025  RH  015%=      5-min Rain = 0
KDC1 262059Z 19014G19KT 33/03 A2987 RMK A01 T03300030  RH  015%=      5-min Rain = 0
KDC1 262100Z 20012KT 33/02 A2987 RMK A01 T03300019  RH  014%=      5-min Rain = 0
KDC1 262101Z 20010G15KT 33/02 A2987 RMK A01 T03310018  RH  014%=      5-min Rain = 0
KDC1 262102Z 20011G18KT 33/02 A2987 RMK A01 T03330018  RH  014%=      5-min Rain = 0
KDC1 262103Z 20014G20KT 34/02 A2987 RMK A01 T03360021  RH  014%=      5-min Rain = 0
KDC1 262104Z 20013G22KT 34/01 A2987 RMK A01 T03360013  RH  013%=      5-min Rain = 0
KDC1 262105Z 19014KT 34/02 A2987 RMK A01 T03350017  RH  013%=      5-min Rain = 0
KDC1 262106Z 19018KT 34/02 A2987 RMK A01 T03350022  RH  014%=      5-min Rain = 0
KDC1 262107Z 21012G18KT 34/03 A2987 RMK A01 T03360025  RH  014%=      5-min Rain = 0
KDC1 262108Z 20011G18KT 34/03 A2987 RMK A01 T03380026  RH  014%=      5-min Rain = 0
KDC1 262109Z 19009G14KT 34/03 A2987 RMK A01 T03380033  RH  015%=      5-min Rain = 0
KDC1 262110Z 20010G16KT 34/03 A2987 RMK A01 T03390034  RH  015%=      5-min Rain = 0
KDC1 262111Z 19010KT 34/03 A2987 RMK A01 T03370026  RH  014%=      5-min Rain = 0
KDC1 262112Z 19011G18KT 33/03 A2987 RMK A01 T03340030  RH  015%=      5-min Rain = 0
KDC1 262113Z 18013G19KT 33/03 A2987 RMK A01 T03310025  RH  014%=      5-min Rain = 0
KDC1 262114Z 18013G18KT 33/04 A2987 RMK A01 T03270035  RH  016%=      5-min Rain = 0
KDC1 262115Z 19016G21KT 32/03 A2987 RMK A01 T03240034  RH  016%=      5-min Rain = 0
KDC1 262116Z 18015G20KT 32/03 A2987 RMK A01 T03220027  RH  015%=      5-min Rain = 0
KDC1 262117Z 19013G18KT 32/03 A2987 RMK A01 T03200032  RH  016%=      5-min Rain = 0
KDC1 262118Z 20009KT 32/03 A2987 RMK A01 T03190028  RH  016%=      5-min Rain = 0
KDC1 262119Z 18011KT 32/03 A2987 RMK A01 T03190027  RH  016%=      5-min Rain = 0
KDC1 262120Z 19010KT 32/02 A2987 RMK A01 T03180023  RH  015%=      5-min Rain = 0
KDC1 262121Z 19011KT 32/02 A2987 RMK A01 T03200021  RH  015%=      5-min Rain = 0
KDC1 262122Z 20011G17KT 32/02 A2987 RMK A01 T03240023  RH  015%=      5-min Rain = 0
KDC1 262123Z 19009KT 33/03 A2987 RMK A01 T03280026  RH  015%=      5-min Rain = 0
KDC1 262124Z 20008G15KT 33/03 A2987 RMK A01 T03310030  RH  015%=      5-min Rain = 0
KDC1 262125Z 21010KT 33/03 A2987 RMK A01 T03340028  RH  015%=      5-min Rain = 0
KDC1 262126Z 19010G15KT 34/03 A2987 RMK A01 T03350029  RH  015%=      5-min Rain = 0
KDC1 262127Z 19011KT 33/03 A2986 RMK A01 T03340028  RH  015%=      5-min Rain = 0
KDC1 262128Z 19012G21KT 33/02 A2986 RMK A01 T03320024  RH  014%=      5-min Rain = 0
KDC1 262129Z 19016G23KT 33/03 A2986 RMK A01 T03280027  RH  015%=      5-min Rain = 0
KDC1 262130Z 20012G18KT 33/02 A2986 RMK A01 T03260020  RH  014%=      5-min Rain = 0
KDC1 262131Z 19011KT 33/02 A2986 RMK A01 T03250022  RH  015%=      5-min Rain = 0
KDC1 262132Z 20011KT 33/03 A2986 RMK A01 T03250027  RH  015%=      5-min Rain = 0
KDC1 262133Z 19011G17KT 32/02 A2986 RMK A01 T03240019  RH  014%=      5-min Rain = 0
KDC1 262134Z 19012KT 32/03 A2986 RMK A01 T03240026  RH  015%=      5-min Rain = 0
KDC1 262135Z 19014G21KT 32/03 A2986 RMK A01 T03230028  RH  015%=      5-min Rain = 0
KDC1 262136Z 19014KT 32/02 A2986 RMK A01 T03220019  RH  015%=      5-min Rain = 0
KDC1 262137Z 20011KT 32/02 A2986 RMK A01 T03220019  RH  015%=      5-min Rain = 0
KDC1 262138Z 18013G18KT 32/02 A2986 RMK A01 T03220020  RH  015%=      5-min Rain = 0
KDC1 262139Z 19013G22KT 32/02 A2986 RMK A01 T03220019  RH  015%=      5-min Rain = 0
KDC1 262140Z 19014G21KT 32/02 A2986 RMK A01 T03220023  RH  015%=      5-min Rain = 0
KDC1 262141Z 20016G24KT 32/02 A2986 RMK A01 T03220016  RH  014%=      5-min Rain = 0
KDC1 262142Z 20010G16KT 32/01 A2986 RMK A01 T03240014  RH  014%=      5-min Rain = 0
KDC1 262143Z 21009G15KT 33/02 A2986 RMK A01 T03260016  RH  014%=      5-min Rain = 0
KDC1 262144Z 21009G16KT 33/02 A2986 RMK A01 T03260017  RH  014%=      5-min Rain = 0
KDC1 262145Z 21010G17KT 33/02 A2985 RMK A01 T03270019  RH  014%=      5-min Rain = 0
KDC1 262146Z 21008KT 33/02 A2986 RMK A01 T03290023  RH  014%=      5-min Rain = 0
KDC1 262147Z 21009KT 33/03 A2986 RMK A01 T03310027  RH  015%=      5-min Rain = 0
KDC1 262148Z 20010G19KT 33/03 A2985 RMK A01 T03320026  RH  014%=      5-min Rain = 0
KDC1 262149Z 20011G21KT 33/02 A2985 RMK A01 T03320024  RH  014%=      5-min Rain = 0
KDC1 262150Z 21012G19KT 33/02 A2985 RMK A01 T03320020  RH  014%=      5-min Rain = 0
KDC1 262151Z 20010G15KT 33/02 A2985 RMK A01 T03320019  RH  014%=      5-min Rain = 0
KDC1 262152Z 21008KT 33/03 A2985 RMK A01 T03330026  RH  014%=      5-min Rain = 0
KDC1 262153Z 19012KT 34/03 A2985 RMK A01 T03350029  RH  014%=      5-min Rain = 0
KDC1 262154Z 18011KT 34/03 A2985 RMK A01 T03350025  RH  014%=      5-min Rain = 0
KDC1 262155Z 18009G16KT 34/04 A2984 RMK A01 T03350035  RH  015%=      5-min Rain = 0
KDC1 262156Z 19015G21KT 33/03 A2984 RMK A01 T03330029  RH  015%=      5-min Rain = 0
KDC1 262157Z 18017G23KT 33/04 A2984 RMK A01 T03300039  RH  016%=      5-min Rain = 0
KDC1 262158Z 19012G18KT 33/04 A2984 RMK A01 T03270035  RH  016%=      5-min Rain = 0
KDC1 262159Z 18016KT 33/03 A2984 RMK A01 T03260031  RH  016%=      5-min Rain = 0
KDC1 262200Z 19015G20KT 33/02 A2984 RMK A01 T03280023  RH  014%=      5-min Rain = 0
KDC1 262201Z 20013G21KT 33/03 A2984 RMK A01 T03310026  RH  015%=      5-min Rain = 0
KDC1 262202Z 20012G20KT 33/03 A2984 RMK A01 T03340025  RH  014%=      5-min Rain = 0
KDC1 262203Z 20014G19KT 34/02 A2984 RMK A01 T03370021  RH  014%=      5-min Rain = 0
KDC1 262204Z 20013G19KT 34/02 A2984 RMK A01 T03360019  RH  013%=      5-min Rain = 0
KDC1 262205Z 20015G21KT 34/02 A2984 RMK A01 T03360017  RH  013%=      5-min Rain = 0
KDC1 262206Z 21011KT 34/01 A2984 RMK A01 T03350013  RH  013%=      5-min Rain = 0
KDC1 262207Z 22009G14KT 33/02 A2984 RMK A01 T03340021  RH  014%=      5-min Rain = 0
KDC1 262208Z 20011KT 33/03 A2984 RMK A01 T03340028  RH  014%=      5-min Rain = 0
KDC1 262209Z 20009KT 33/02 A2984 RMK A01 T03340019  RH  014%=      5-min Rain = 0
KDC1 262210Z 19014G20KT 33/02 A2983 RMK A01 T03330018  RH  014%=      5-min Rain = 0
KDC1 262211Z 19012KT 33/02 A2983 RMK A01 T03330018  RH  014%=      5-min Rain = 0
KDC1 262212Z 19007KT 33/02 A2983 RMK A01 T03330023  RH  014%=      5-min Rain = 0
KDC1 262213Z 19011KT 33/03 A2983 RMK A01 T03340025  RH  014%=      5-min Rain = 0
KDC1 262214Z 18012G19KT 34/03 A2983 RMK A01 T03360029  RH  015%=      5-min Rain = 0
KDC1 262215Z 18013KT 34/03 A2983 RMK A01 T03350030  RH  015%=      5-min Rain = 0
KDC1 262216Z 20010G16KT 33/03 A2983 RMK A01 T03330033  RH  015%=      5-min Rain = 0
KDC1 262217Z 18013G23KT 33/03 A2983 RMK A01 T03320028  RH  015%=      5-min Rain = 0
KDC1 262218Z 20013G22KT 33/03 A2983 RMK A01 T03300034  RH  015%=      5-min Rain = 0
KDC1 262219Z 20013G19KT 33/03 A2983 RMK A01 T03290025  RH  015%=      5-min Rain = 0
KDC1 262220Z 20011KT 33/03 A2983 RMK A01 T03310025  RH  014%=      5-min Rain = 0
KDC1 262221Z 20012KT 33/02 A2983 RMK A01 T03320022  RH  014%=      5-min Rain = 0
KDC1 262222Z 19013G19KT 33/02 A2983 RMK A01 T03330018  RH  014%=      5-min Rain = 0
KDC1 262223Z 19013G18KT 33/02 A2983 RMK A01 T03310022  RH  014%=      5-min Rain = 0
KDC1 262224Z 19018KT 33/02 A2983 RMK A01 T03300021  RH  014%=      5-min Rain = 0
KDC1 262225Z 19016G22KT 33/02 A2982 RMK A01 T03270019  RH  014%=      5-min Rain = 0
KDC1 262226Z 20014G22KT 33/02 A2982 RMK A01 T03250015  RH  014%=      5-min Rain = 0
KDC1 262227Z 20010G16KT 32/01 A2982 RMK A01 T03240012  RH  014%=      5-min Rain = 0
KDC1 262228Z 18010G16KT 33/01 A2982 RMK A01 T03250014  RH  014%=      5-min Rain = 0
KDC1 262229Z 20011G16KT 33/02 A2982 RMK A01 T03250017  RH  014%=      5-min Rain = 0
KDC1 262230Z 20008KT 33/02 A2982 RMK A01 T03250017  RH  014%=      5-min Rain = 0
KDC1 262231Z 19005G10KT 33/02 A2982 RMK A01 T03260020  RH  014%=      5-min Rain = 0
KDC1 262232Z 19013KT 33/02 A2982 RMK A01 T03280020  RH  014%=      5-min Rain = 0
KDC1 262233Z 19013G20KT 33/02 A2982 RMK A01 T03280022  RH  014%=      5-min Rain = 0
KDC1 262234Z 19014KT 33/02 A2982 RMK A01 T03290023  RH  014%=      5-min Rain = 0
KDC1 262235Z 19012G19KT 33/02 A2982 RMK A01 T03280024  RH  015%=      5-min Rain = 0
KDC1 262236Z 20010G15KT 33/02 A2982 RMK A01 T03290018  RH  014%=      5-min Rain = 0
KDC1 262237Z 20010G15KT 33/02 A2982 RMK A01 T03290019  RH  014%=      5-min Rain = 0
KDC1 262238Z 20011G16KT 33/02 A2982 RMK A01 T03300024  RH  014%=      5-min Rain = 0
KDC1 262239Z 21009G15KT 33/03 A2982 RMK A01 T03290025  RH  015%=      5-min Rain = 0
KDC1 262240Z 20013G18KT 33/02 A2982 RMK A01 T03290021  RH  014%=      5-min Rain = 0
KDC1 262241Z 20012G18KT 33/01 A2982 RMK A01 T03280014  RH  014%=      5-min Rain = 0
KDC1 262242Z 19013G18KT 33/02 A2982 RMK A01 T03280017  RH  014%=      5-min Rain = 0
KDC1 262243Z 20015G22KT 33/02 A2982 RMK A01 T03280019  RH  014%=      5-min Rain = 0
KDC1 262244Z 20012G18KT 33/02 A2982 RMK A01 T03270017  RH  014%=      5-min Rain = 0
KDC1 262245Z 20016KT 33/02 A2982 RMK A01 T03270017  RH  014%=      5-min Rain = 0
KDC1 262246Z 20014G19KT 33/01 A2982 RMK A01 T03270014  RH  014%=      5-min Rain = 0
KDC1 262247Z 20011G16KT 33/01 A2982 RMK A01 T03270014  RH  014%=      5-min Rain = 0
KDC1 262248Z 21013G21KT 33/02 A2983 RMK A01 T03270015  RH  014%=      5-min Rain = 0
KDC1 262249Z 20011G23KT 33/02 A2983 RMK A01 T03280020  RH  014%=      5-min Rain = 0
KDC1 262250Z 23010G15KT 33/02 A2983 RMK A01 T03280020  RH  014%=      5-min Rain = 0
KDC1 262251Z 21014G22KT 33/02 A2982 RMK A01 T03290020  RH  014%=      5-min Rain = 0
KDC1 262252Z 23009G14KT 33/01 A2982 RMK A01 T03300011  RH  013%=      5-min Rain = 0
KDC1 262253Z 23012G20KT 33/01 A2982 RMK A01 T03320010  RH  013%=      5-min Rain = 0
KDC1 262254Z 23012G21KT 33/01 A2982 RMK A01 T03320006  RH  013%=      5-min Rain = 0
KDC1 262255Z 22010G16KT 33/01 A2982 RMK A01 T03320008  RH  013%=      5-min Rain = 0
KDC1 262256Z 24013G18KT 33/01 A2981 RMK A01 T03330011  RH  013%=      5-min Rain = 0
KDC1 262257Z 22010G16KT 33/02 A2982 RMK A01 T03330017  RH  013%=      5-min Rain = 0
KDC1 262258Z 23010KT 33/02 A2982 RMK A01 T03340023  RH  014%=      5-min Rain = 0
KDC1 262259Z 23013G23KT 33/03 A2982 RMK A01 T03340025  RH  014%=      5-min Rain = 0
KDC1 262300Z 23017G23KT 33/02 A2981 RMK A01 T03330020  RH  014%=      5-min Rain = 0
KDC1 262301Z 23015G22KT 33/02 A2982 RMK A01 T03310020  RH  014%=      5-min Rain = 0
KDC1 262302Z 24018G25KT 33/02 A2982 RMK A01 T03300015  RH  014%=      5-min Rain = 0
KDC1 262303Z 25019G28KT 33/01 A2981 RMK A01 T03300012  RH  013%=      5-min Rain = 0
KDC1 262304Z 25020G27KT 33/M00 A2981 RMK A01 T03301001  RH  012%=      5-min Rain = 0
KDC1 262305Z 24015KT 33/02 A2981 RMK A01 T03300016  RH  014%=      5-min Rain = 0
KDC1 262306Z 23008G16KT 33/02 A2981 RMK A01 T03300017  RH  014%=      5-min Rain = 0
KDC1 262307Z 24012KT 33/02 A2981 RMK A01 T03310015  RH  014%=      5-min Rain = 0
KDC1 262308Z 23010KT 33/02 A2981 RMK A01 T03310015  RH  013%=      5-min Rain = 0
KDC1 262309Z 23010G16KT 33/02 A2981 RMK A01 T03330017  RH  013%=      5-min Rain = 0
KDC1 262310Z 23008KT 33/02 A2981 RMK A01 T03330022  RH  014%=      5-min Rain = 0
KDC1 262311Z 22009G22KT 33/03 A2981 RMK A01 T03330027  RH  014%=      5-min Rain = 0
KDC1 262312Z 22010G18KT 33/02 A2981 RMK A01 T03330021  RH  014%=      5-min Rain = 0
KDC1 262313Z 22014G19KT 33/01 A2981 RMK A01 T03330013  RH  013%=      5-min Rain = 0
KDC1 262314Z 22013KT 33/01 A2981 RMK A01 T03340008  RH  013%=      5-min Rain = 0
KDC1 262315Z 22009G18KT 33/01 A2981 RMK A01 T03340011  RH  013%=      5-min Rain = 0
KDC1 262316Z 22012G17KT 33/02 A2981 RMK A01 T03340015  RH  013%=      5-min Rain = 0
KDC1 262317Z 22013G18KT 33/01 A2981 RMK A01 T03340014  RH  013%=      5-min Rain = 0
KDC1 262318Z 23016G21KT 34/01 A2981 RMK A01 T03350012  RH  013%=      5-min Rain = 0
KDC1 262319Z 23015G20KT 34/01 A2981 RMK A01 T03350010  RH  013%=      5-min Rain = 0
KDC1 262320Z 23013G19KT 33/01 A2981 RMK A01 T03340012  RH  013%=      5-min Rain = 0
KDC1 262321Z 22011G17KT 33/02 A2981 RMK A01 T03340016  RH  013%=      5-min Rain = 0
KDC1 262322Z 21010KT 33/02 A2981 RMK A01 T03340020  RH  014%=      5-min Rain = 0
KDC1 262323Z 21013G20KT 33/01 A2981 RMK A01 T03340014  RH  013%=      5-min Rain = 0
KDC1 262324Z 22007G12KT 34/01 A2981 RMK A01 T03350010  RH  013%=      5-min Rain = 0
KDC1 262325Z 20012KT 34/02 A2981 RMK A01 T03350017  RH  013%=      5-min Rain = 0
KDC1 262326Z 21009G15KT 33/01 A2981 RMK A01 T03330006  RH  012%=      5-min Rain = 0
KDC1 262327Z 20015G26KT 33/00 A298 RMK A01 T03320002  RH  012%=      5-min Rain = 0
KDC1 262328Z 23012G17KT 33/00 A2981 RMK A01 T03310004  RH  012%=      5-min Rain = 0
KDC1 262329Z 22011G20KT 33/02 A2981 RMK A01 T03310017  RH  014%=      5-min Rain = 0
KDC1 262330Z 23012G19KT 33/01 A2981 RMK A01 T03290012  RH  013%=      5-min Rain = 0
KDC1 262331Z 23009G17KT 33/01 A2981 RMK A01 T03280011  RH  013%=      5-min Rain = 0
KDC1 262332Z 23010G16KT 33/02 A2981 RMK A01 T03270017  RH  014%=      5-min Rain = 0
KDC1 262333Z 24009G14KT 33/02 A2981 RMK A01 T03260019  RH  014%=      5-min Rain = 0
KDC1 262334Z 23010G15KT 33/02 A2981 RMK A01 T03260019  RH  014%=      5-min Rain = 0
KDC1 262335Z 23011KT 33/02 A2981 RMK A01 T03250017  RH  014%=      5-min Rain = 0
KDC1 262336Z 23012G18KT 33/01 A2981 RMK A01 T03250013  RH  014%=      5-min Rain = 0
KDC1 262337Z 23012G18KT 33/01 A298 RMK A01 T03260011  RH  013%=      5-min Rain = 0
KDC1 262338Z 24015G20KT 33/01 A298 RMK A01 T03280007  RH  013%=      5-min Rain = 0
KDC1 262339Z 24011G16KT 33/01 A298 RMK A01 T03300011  RH  013%=      5-min Rain = 0
KDC1 262340Z 24013G19KT 33/02 A2981 RMK A01 T03310015  RH  013%=      5-min Rain = 0
KDC1 262341Z 23011KT 33/02 A298 RMK A01 T03300018  RH  014%=      5-min Rain = 0
KDC1 262342Z 24010G16KT 33/02 A298 RMK A01 T03290018  RH  014%=      5-min Rain = 0
KDC1 262343Z 24010KT 33/02 A2981 RMK A01 T03280016  RH  014%=      5-min Rain = 0
KDC1 262344Z 24009KT 33/02 A298 RMK A01 T03270020  RH  014%=      5-min Rain = 0
KDC1 262345Z 22011KT 33/02 A298 RMK A01 T03260020  RH  014%=      5-min Rain = 0
KDC1 262346Z 22010G17KT 33/01 A298 RMK A01 T03250012  RH  014%=      5-min Rain = 0
KDC1 262347Z 22012G19KT 33/M00 A298 RMK A01 T03271004  RH  012%=      5-min Rain = 0
KDC1 262348Z 23015G27KT 33/M00 A298 RMK A01 T03291001  RH  012%=      5-min Rain = 0
KDC1 262349Z 22014G21KT 33/M00 A298 RMK A01 T03301004  RH  012%=      5-min Rain = 0
KDC1 262350Z 23011G19KT 33/M01 A298 RMK A01 T03311006  RH  012%=      5-min Rain = 0
KDC1 262351Z 23013G26KT 33/M00 A298 RMK A01 T03321002  RH  012%=      5-min Rain = 0
KDC1 262352Z 24018G29KT 33/M01 A298 RMK A01 T03321008  RH  011%=      5-min Rain = 0
KDC1 262353Z 24016G22KT 33/M01 A298 RMK A01 T03321011  RH  011%=      5-min Rain = 0
KDC1 262354Z 23014G22KT 33/M01 A298 RMK A01 T03331006  RH  011%=      5-min Rain = 0
KDC1 262355Z 24020G30KT 33/00 A298 RMK A01 T03320000  RH  012%=      5-min Rain = 0
KDC1 262356Z 24018G23KT 33/M01 A298 RMK A01 T03321009  RH  011%=      5-min Rain = 0
KDC1 262357Z 23015KT 33/M01 A298 RMK A01 T03321007  RH  011%=      5-min Rain = 0
KDC1 262358Z 23015G20KT 33/M01 A298 RMK A01 T03321006  RH  012%=      5-min Rain = 0
KDC1 262359Z 23014G19KT 33/M01 A298 RMK A01 T03321006  RH  011%=      5-min Rain = 0
KDC1 270000Z 24016G23KT 33/M01 A2981 RMK A01 T03321005  RH  012%=      5-min Rain = 0
KDC1 270001Z 24015G22KT 33/M00 A2981 RMK A01 T03311001  RH  012%=      5-min Rain = 0
KDC1 270002Z 25020G27KT 33/M00 A2981 RMK A01 T03301002  RH  012%=      5-min Rain = 0
KDC1 270003Z 25025G30KT 33/M02 A298 RMK A01 T03301016  RH  011%=      5-min Rain = 0
KDC1 270004Z 26020G25KT 33/M02 A298 RMK A01 T03311017  RH  011%=      5-min Rain = 0
KDC1 270005Z 26023KT 33/M02 A298 RMK A01 T03311015  RH  011%=      5-min Rain = 0
KDC1 270006Z 25023G28KT 33/M01 A298 RMK A01 T03311014  RH  011%=      5-min Rain = 0
KDC1 270007Z 25021G26KT 33/M01 A298 RMK A01 T03311010  RH  011%=      5-min Rain = 0
KDC1 270008Z 25018KT 33/M01 A298 RMK A01 T03291007  RH  012%=      5-min Rain = 0
KDC1 270009Z 25016G23KT 33/M01 A298 RMK A01 T03281006  RH  012%=      5-min Rain = 0
KDC1 270010Z 24011G16KT 33/00 A2981 RMK A01 T03280003  RH  013%=      5-min Rain = 0
KDC1 270011Z 24012G17KT 33/00 A2981 RMK A01 T03270003  RH  013%=      5-min Rain = 0
KDC1 270012Z 24015G23KT 33/01 A2981 RMK A01 T03270006  RH  013%=      5-min Rain = 0
KDC1 270013Z 23018G26KT 33/00 A2981 RMK A01 T03260001  RH  013%=      5-min Rain = 0
KDC1 270014Z 24016G23KT 33/M00 A2981 RMK A01 T03261004  RH  012%=      5-min Rain = 0
KDC1 270015Z 24019G24KT 33/M00 A298 RMK A01 T03261001  RH  012%=      5-min Rain = 0
KDC1 270016Z 24018KT 33/M00 A298 RMK A01 T03251002  RH  012%=      5-min Rain = 0
KDC1 270017Z 24018KT 32/M01 A2981 RMK A01 T03241009  RH  012%=      5-min Rain = 0
KDC1 270018Z 23014G20KT 33/M01 A298 RMK A01 T03251008  RH  012%=      5-min Rain = 0
KDC1 270019Z 24014G19KT 33/M01 A298 RMK A01 T03251013  RH  011%=      5-min Rain = 0
KDC1 270020Z 24015G20KT 33/M01 A2981 RMK A01 T03261007  RH  012%=      5-min Rain = 0
KDC1 270021Z 25015KT 32/01 A2981 RMK A01 T03240006  RH  013%=      5-min Rain = 0
KDC1 270022Z 25016KT 32/M00 A2981 RMK A01 T03221003  RH  012%=      5-min Rain = 0
KDC1 270023Z 26019G24KT 32/M01 A2981 RMK A01 T03221011  RH  012%=      5-min Rain = 0
KDC1 270024Z 25017G22KT 32/M01 A2981 RMK A01 T03241011  RH  012%=      5-min Rain = 0
KDC1 270025Z 25017KT 32/M01 A2981 RMK A01 T03231013  RH  011%=      5-min Rain = 0
KDC1 270026Z 25016KT 32/M01 A2981 RMK A01 T03231013  RH  011%=      5-min Rain = 0
KDC1 270027Z 25017G23KT 32/M01 A2981 RMK A01 T03211012  RH  012%=      5-min Rain = 0
KDC1 270028Z 25015KT 32/M02 A2981 RMK A01 T03221015  RH  011%=      5-min Rain = 0
KDC1 270029Z 26016KT 32/M02 A2981 RMK A01 T03221019  RH  011%=      5-min Rain = 0
KDC1 270030Z 26016KT 32/M02 A2981 RMK A01 T03231023  RH  011%=      5-min Rain = 0
KDC1 270031Z 26014G20KT 32/M02 A2981 RMK A01 T03241016  RH  011%=      5-min Rain = 0
KDC1 270032Z 26020KT 32/M02 A2981 RMK A01 T03241024  RH  011%=      5-min Rain = 0
KDC1 270033Z 26016KT 33/M03 A2981 RMK A01 T03251026  RH  010%=      5-min Rain = 0
KDC1 270034Z 27018KT 33/M02 A2981 RMK A01 T03251020  RH  011%=      5-min Rain = 0
KDC1 270035Z 26019G27KT 32/M02 A2981 RMK A01 T03241022  RH  011%=      5-min Rain = 0
KDC1 270036Z 25023KT 32/M03 A2981 RMK A01 T03231027  RH  010%=      5-min Rain = 0
KDC1 270037Z 25017G23KT 32/M03 A2981 RMK A01 T03241027  RH  010%=      5-min Rain = 0
KDC1 270038Z 25013G20KT 32/M01 A2982 RMK A01 T03231010  RH  012%=      5-min Rain = 0
KDC1 270039Z 24018G24KT 32/M01 A2981 RMK A01 T03201013  RH  012%=      5-min Rain = 0
KDC1 270040Z 25016G21KT 32/M02 A2982 RMK A01 T03191017  RH  011%=      5-min Rain = 0
KDC1 270041Z 25017G22KT 32/M02 A2981 RMK A01 T03181022  RH  011%=      5-min Rain = 0
KDC1 270042Z 25021G26KT 32/M03 A2981 RMK A01 T03181025  RH  011%=      5-min Rain = 0
KDC1 270043Z 25016G21KT 32/M03 A2981 RMK A01 T03191032  RH  010%=      5-min Rain = 0
KDC1 270044Z 24016KT 32/M03 A2981 RMK A01 T03201025  RH  011%=      5-min Rain = 0
KDC1 270045Z 26018G23KT 32/M03 A2981 RMK A01 T03191026  RH  011%=      5-min Rain = 0
KDC1 270046Z 26020G26KT 32/M03 A2981 RMK A01 T03191028  RH  011%=      5-min Rain = 0
KDC1 270047Z 26022KT 32/M03 A2981 RMK A01 T03191033  RH  010%=      5-min Rain = 0
KDC1 270048Z 26021KT 32/M04 A2981 RMK A01 T03191035  RH  010%=      5-min Rain = 0
KDC1 270049Z 26021G26KT 32/M04 A2981 RMK A01 T03191037  RH  010%=      5-min Rain = 0
KDC1 270050Z 26018KT 32/M04 A2982 RMK A01 T03191037  RH  010%=      5-min Rain = 0
KDC1 270051Z 26015KT 32/M04 A2982 RMK A01 T03191036  RH  010%=      5-min Rain = 0
KDC1 270052Z 26014KT 32/M03 A2982 RMK A01 T03191033  RH  010%=      5-min Rain = 0
KDC1 270053Z 27018KT 32/M03 A2982 RMK A01 T03171033  RH  010%=      5-min Rain = 0
KDC1 270054Z 26018G24KT 32/M04 A2982 RMK A01 T03171037  RH  010%=      5-min Rain = 0
KDC1 270055Z 26018KT 32/M04 A2982 RMK A01 T03171040  RH  010%=      5-min Rain = 0
KDC1 270056Z 26018KT 32/M04 A2982 RMK A01 T03171035  RH  010%=      5-min Rain = 0
KDC1 270057Z 25017KT 32/M03 A2982 RMK A01 T03161034  RH  010%=      5-min Rain = 0
KDC1 270058Z 26015KT 32/M03 A2982 RMK A01 T03151032  RH  010%=      5-min Rain = 0
KDC1 270059Z 26017G22KT 31/M03 A2982 RMK A01 T03141031  RH  011%=      5-min Rain = 0
KDC1 270100Z 27019KT 31/M03 A2982 RMK A01 T03141034  RH  010%=      5-min Rain = 0
KDC1 270101Z 26020KT 32/M04 A2982 RMK A01 T03151039  RH  010%=      5-min Rain = 0
KDC1 270102Z 27018KT 32/M04 A2982 RMK A01 T03151040  RH  010%=      5-min Rain = 0
KDC1 270103Z 27018KT 32/M03 A2982 RMK A01 T03151034  RH  010%=      5-min Rain = 0
KDC1 270104Z 27018KT 31/M03 A2982 RMK A01 T03141031  RH  011%=      5-min Rain = 0
KDC1 270105Z 27014KT 31/M02 A2982 RMK A01 T03121022  RH  011%=      5-min Rain = 0
KDC1 270106Z 28015KT 31/M01 A2982 RMK A01 T03081007  RH  013%=      5-min Rain = 0
KDC1 270107Z 27017G22KT 30/M00 A2982 RMK A01 T03041001  RH  014%=      5-min Rain = 0
KDC1 270108Z 28019KT 30/M01 A2982 RMK A01 T03011011  RH  013%=      5-min Rain = 0
KDC1 270109Z 28020KT 30/M02 A2982 RMK A01 T03031016  RH  013%=      5-min Rain = 0
KDC1 270110Z 28017KT 30/M01 A2982 RMK A01 T03031005  RH  014%=      5-min Rain = 0
KDC1 270111Z 28016KT 30/M00 A2983 RMK A01 T03011001  RH  014%=      5-min Rain = 0
KDC1 270112Z 27018KT 30/M00 A2983 RMK A01 T02981001  RH  014%=      5-min Rain = 0
KDC1 270113Z 27021KT 30/M01 A2983 RMK A01 T02981008  RH  014%=      5-min Rain = 0
KDC1 270114Z 28019KT 30/M01 A2983 RMK A01 T02991011  RH  013%=      5-min Rain = 0
KDC1 270115Z 27017KT 30/M01 A2983 RMK A01 T02991006  RH  014%=      5-min Rain = 0
KDC1 270116Z 28019KT 30/M00 A2983 RMK A01 T02981004  RH  014%=      5-min Rain = 0
KDC1 270117Z 28017KT 30/M01 A2983 RMK A01 T02981008  RH  014%=      5-min Rain = 0
KDC1 270118Z 28018KT 30/M01 A2983 RMK A01 T02971010  RH  014%=      5-min Rain = 0
KDC1 270119Z 28018KT 30/M01 A2983 RMK A01 T02981007  RH  014%=      5-min Rain = 0
KDC1 270120Z 28017G24KT 30/M01 A2983 RMK A01 T02971006  RH  014%=      5-min Rain = 0
KDC1 270121Z 28018KT 30/M01 A2983 RMK A01 T02961011  RH  014%=      5-min Rain = 0
KDC1 270122Z 27019KT 30/M01 A2983 RMK A01 T02961011  RH  014%=      5-min Rain = 0
KDC1 270123Z 28021KT 30/M01 A2983 RMK A01 T02961013  RH  013%=      5-min Rain = 0
KDC1 270124Z 28018KT 30/M01 A2983 RMK A01 T02961013  RH  013%=      5-min Rain = 0
KDC1 270125Z 28018KT 30/M01 A2983 RMK A01 T02951008  RH  014%=      5-min Rain = 0
KDC1 270126Z 28018KT 29/M01 A2983 RMK A01 T02931008  RH  014%=      5-min Rain = 0
KDC1 270127Z 28016KT 29/M01 A2983 RMK A01 T02931008  RH  014%=      5-min Rain = 0
KDC1 270128Z 28017KT 29/M01 A2983 RMK A01 T02921005  RH  014%=      5-min Rain = 0
KDC1 270129Z 28017G22KT 29/M01 A2983 RMK A01 T02911007  RH  015%=      5-min Rain = 0
KDC1 270130Z 28018KT 29/M02 A2983 RMK A01 T02911016  RH  013%=      5-min Rain = 0
KDC1 270131Z 28016KT 29/M01 A2984 RMK A01 T02921008  RH  014%=      5-min Rain = 0
KDC1 270132Z 28016KT 29/M01 A2984 RMK A01 T02911008  RH  014%=      5-min Rain = 0
KDC1 270133Z 28016KT 29/M01 A2984 RMK A01 T02911011  RH  014%=      5-min Rain = 0
KDC1 270134Z 28017KT 29/M01 A2984 RMK A01 T02911012  RH  014%=      5-min Rain = 0
KDC1 270135Z 28015KT 29/M01 A2984 RMK A01 T02901012  RH  014%=      5-min Rain = 0
KDC1 270136Z 28014KT 29/M01 A2984 RMK A01 T02901008  RH  014%=      5-min Rain = 0
KDC1 270137Z 28013KT 29/M00 A2984 RMK A01 T02881003  RH  015%=      5-min Rain = 0
KDC1 270138Z 28015KT 29/M01 A2984 RMK A01 T02861005  RH  015%=      5-min Rain = 0
KDC1 270139Z 28015KT 29/M01 A2984 RMK A01 T02861008  RH  015%=      5-min Rain = 0
KDC1 270140Z 28013KT 29/M01 A2984 RMK A01 T02861005  RH  015%=      5-min Rain = 0
KDC1 270141Z 28013KT 29/M00 A2984 RMK A01 T02851003  RH  015%=      5-min Rain = 0
KDC1 270142Z 28014KT 28/M00 A2984 RMK A01 T02831001  RH  016%=      5-min Rain = 0
KDC1 270143Z 28013KT 28/M00 A2985 RMK A01 T02821003  RH  016%=      5-min Rain = 0
KDC1 270144Z 28015KT 28/M01 A2984 RMK A01 T02821008  RH  015%=      5-min Rain = 0
KDC1 270145Z 28014KT 28/M01 A2985 RMK A01 T02841007  RH  015%=      5-min Rain = 0
KDC1 270146Z 28013KT 28/M01 A2985 RMK A01 T02831008  RH  015%=      5-min Rain = 0
KDC1 270147Z 28014KT 28/M00 A2985 RMK A01 T02831002  RH  016%=      5-min Rain = 0
KDC1 270148Z 28013KT 28/M00 A2985 RMK A01 T02811004  RH  016%=      5-min Rain = 0
KDC1 270149Z 28013KT 28/M01 A2985 RMK A01 T02801009  RH  015%=      5-min Rain = 0
KDC1 270150Z 28013KT 28/M01 A2985 RMK A01 T02811010  RH  015%=      5-min Rain = 0
KDC1 270151Z 28013KT 28/M01 A2985 RMK A01 T02811006  RH  015%=      5-min Rain = 0
KDC1 270152Z 28015KT 28/M01 A2985 RMK A01 T02801011  RH  015%=      5-min Rain = 0
KDC1 270153Z 28017KT 28/M02 A2985 RMK A01 T02821018  RH  014%=      5-min Rain = 0
KDC1 270154Z 28016KT 28/M02 A2985 RMK A01 T02841017  RH  014%=      5-min Rain = 0
KDC1 270155Z 28015KT 28/M01 A2985 RMK A01 T02841014  RH  014%=      5-min Rain = 0
KDC1 270156Z 28015KT 28/M01 A2985 RMK A01 T02821011  RH  015%=      5-min Rain = 0
KDC1 270157Z 27017KT 28/M02 A2985 RMK A01 T02811016  RH  014%=      5-min Rain = 0
KDC1 270158Z 28017KT 28/M02 A2985 RMK A01 T02811018  RH  014%=      5-min Rain = 0
KDC1 270159Z 28015KT 28/M02 A2985 RMK A01 T02821015  RH  014%=      5-min Rain = 0
KDC1 270200Z 28015KT 28/M01 A2985 RMK A01 T02801011  RH  015%=      5-min Rain = 0
KDC1 270201Z 28017KT 28/M02 A2985 RMK A01 T02781017  RH  014%=      5-min Rain = 0
KDC1 270202Z 28016KT 28/M02 A2985 RMK A01 T02791019  RH  014%=      5-min Rain = 0
KDC1 270203Z 28016KT 28/M02 A2985 RMK A01 T02791020  RH  014%=      5-min Rain = 0
KDC1 270204Z 28015KT 28/M02 A2985 RMK A01 T02791017  RH  014%=      5-min Rain = 0
KDC1 270205Z 28017KT 28/M02 A2985 RMK A01 T02781023  RH  014%=      5-min Rain = 0
KDC1 270206Z 28017KT 28/M02 A2985 RMK A01 T02781023  RH  014%=      5-min Rain = 0
KDC1 270207Z 28017G22KT 28/M02 A2985 RMK A01 T02781024  RH  014%=      5-min Rain = 0
KDC1 270208Z 28017KT 28/M03 A2985 RMK A01 T02791026  RH  013%=      5-min Rain = 0
KDC1 270209Z 28017KT 28/M02 A2986 RMK A01 T02791024  RH  014%=      5-min Rain = 0
KDC1 270210Z 28017KT 28/M03 A2986 RMK A01 T02791025  RH  014%=      5-min Rain = 0
KDC1 270211Z 28015KT 28/M02 A2986 RMK A01 T02781021  RH  014%=      5-min Rain = 0
KDC1 270212Z 28015KT 28/M02 A2986 RMK A01 T02761022  RH  014%=      5-min Rain = 0
KDC1 270213Z 28016KT 28/M02 A2986 RMK A01 T02761023  RH  014%=      5-min Rain = 0
KDC1 270214Z 28015KT 28/M02 A2986 RMK A01 T02761023  RH  014%=      5-min Rain = 0
KDC1 270215Z 28015KT 27/M02 A2986 RMK A01 T02741021  RH  014%=      5-min Rain = 0
KDC1 270216Z 28015KT 27/M03 A2986 RMK A01 T02741025  RH  014%=      5-min Rain = 0
KDC1 270217Z 28016KT 28/M03 A2986 RMK A01 T02751025  RH  014%=      5-min Rain = 0
KDC1 270218Z 28015KT 28/M02 A2986 RMK A01 T02751020  RH  014%=      5-min Rain = 0
KDC1 270219Z 28015KT 27/M02 A2986 RMK A01 T02731021  RH  014%=      5-min Rain = 0
KDC1 270220Z 28014KT 27/M02 A2986 RMK A01 T02731020  RH  015%=      5-min Rain = 0
KDC1 270221Z 29014KT 27/M02 A2986 RMK A01 T02721019  RH  015%=      5-min Rain = 0
KDC1 270222Z 29013KT 27/M02 A2986 RMK A01 T02711020  RH  015%=      5-min Rain = 0
KDC1 270223Z 29013KT 27/M02 A2986 RMK A01 T02701017  RH  015%=      5-min Rain = 0
KDC1 270224Z 28013KT 27/M02 A2986 RMK A01 T02691018  RH  015%=      5-min Rain = 0
KDC1 270225Z 29012KT 27/M02 A2987 RMK A01 T02681016  RH  015%=      5-min Rain = 0
KDC1 270226Z 29011KT 27/M01 A2987 RMK A01 T02661013  RH  016%=      5-min Rain = 0
KDC1 270227Z 29012KT 26/M01 A2987 RMK A01 T02641010  RH  017%=      5-min Rain = 0
KDC1 270228Z 29012KT 26/M01 A2987 RMK A01 T02621011  RH  017%=      5-min Rain = 0
KDC1 270229Z 29011KT 26/M01 A2987 RMK A01 T02611014  RH  016%=      5-min Rain = 0
KDC1 270230Z 29012KT 26/M01 A2987 RMK A01 T02611011  RH  017%=      5-min Rain = 0
KDC1 270231Z 28012KT 26/M01 A2987 RMK A01 T02611014  RH  016%=      5-min Rain = 0
KDC1 270232Z 28012KT 26/M01 A2987 RMK A01 T02611014  RH  016%=      5-min Rain = 0
KDC1 270233Z 29012KT 26/M02 A2987 RMK A01 T02611018  RH  016%=      5-min Rain = 0
KDC1 270234Z 29012KT 26/M02 A2987 RMK A01 T02611016  RH  016%=      5-min Rain = 0
KDC1 270235Z 29012KT 26/M01 A2987 RMK A01 T02611014  RH  016%=      5-min Rain = 0
KDC1 270236Z 29011KT 26/M02 A2987 RMK A01 T02601015  RH  016%=      5-min Rain = 0
KDC1 270237Z 29012KT 26/M02 A2987 RMK A01 T02591016  RH  016%=      5-min Rain = 0
KDC1 270238Z 29012KT 26/M02 A2987 RMK A01 T02591020  RH  016%=      5-min Rain = 0
KDC1 270239Z 29012KT 26/M02 A2987 RMK A01 T02601020  RH  016%=      5-min Rain = 0
KDC1 270240Z 29012KT 26/M02 A2987 RMK A01 T02601018  RH  016%=      5-min Rain = 0
KDC1 270241Z 28012KT 26/M02 A2987 RMK A01 T02601020  RH  016%=      5-min Rain = 0
KDC1 270242Z 28011KT 26/M02 A2987 RMK A01 T02601019  RH  016%=      5-min Rain = 0
KDC1 270243Z 28011KT 26/M02 A2987 RMK A01 T02591015  RH  016%=      5-min Rain = 0
KDC1 270244Z 28012KT 26/M02 A2987 RMK A01 T02571016  RH  016%=      5-min Rain = 0
KDC1 270245Z 28012KT 26/M02 A2987 RMK A01 T02561017  RH  016%=      5-min Rain = 0
KDC1 270246Z 28012KT 26/M02 A2987 RMK A01 T02551016  RH  017%=      5-min Rain = 0
KDC1 270247Z 28012KT 25/M01 A2987 RMK A01 T02541014  RH  017%=      5-min Rain = 0
KDC1 270248Z 28011KT 25/M01 A2987 RMK A01 T02531012  RH  017%=      5-min Rain = 0
KDC1 270249Z 28012KT 25/M01 A2987 RMK A01 T02511014  RH  017%=      5-min Rain = 0
KDC1 270250Z 28012KT 25/M02 A2987 RMK A01 T02511015  RH  017%=      5-min Rain = 0
KDC1 270251Z 28011KT 25/M02 A2988 RMK A01 T02521016  RH  017%=      5-min Rain = 0
KDC1 270252Z 28011KT 25/M01 A2988 RMK A01 T02521013  RH  017%=      5-min Rain = 0
KDC1 270253Z 28011KT 25/M01 A2987 RMK A01 T02511013  RH  018%=      5-min Rain = 0
KDC1 270254Z 28012KT 25/M01 A2987 RMK A01 T02501013  RH  018%=      5-min Rain = 0
KDC1 270255Z 28011KT 25/M02 A2987 RMK A01 T02491015  RH  017%=      5-min Rain = 0
KDC1 270256Z 28012KT 25/M02 A2987 RMK A01 T02491017  RH  017%=      5-min Rain = 0
KDC1 270257Z 28012KT 25/M02 A2987 RMK A01 T02491018  RH  017%=      5-min Rain = 0
KDC1 270258Z 28013KT 25/M02 A2987 RMK A01 T02491018  RH  017%=      5-min Rain = 0
KDC1 270259Z 28013KT 25/M02 A2987 RMK A01 T02491016  RH  017%=      5-min Rain = 0
KDC1 270300Z 27013KT 25/M02 A2987 RMK A01 T02481016  RH  017%=      5-min Rain = 0
KDC1 270301Z 27013KT 25/M02 A2987 RMK A01 T02481017  RH  017%=      5-min Rain = 0
KDC1 270302Z 27013KT 25/M02 A2987 RMK A01 T02471018  RH  017%=      5-min Rain = 0
KDC1 270303Z 27013KT 25/M02 A2987 RMK A01 T02471019  RH  017%=      5-min Rain = 0
KDC1 270304Z 27014KT 25/M02 A2987 RMK A01 T02481020  RH  017%=      5-min Rain = 0
KDC1 270305Z 27014KT 25/M02 A2987 RMK A01 T02481021  RH  017%=      5-min Rain = 0
KDC1 270306Z 28014KT 25/M02 A2987 RMK A01 T02481020  RH  017%=      5-min Rain = 0
KDC1 270307Z 28015KT 25/M02 A2987 RMK A01 T02481019  RH  017%=      5-min Rain = 0
KDC1 270308Z 28014KT 25/M02 A2987 RMK A01 T02481021  RH  017%=      5-min Rain = 0
KDC1 270309Z 28015KT 25/M02 A2987 RMK A01 T02491021  RH  017%=      5-min Rain = 0
KDC1 270310Z 28015KT 25/M02 A2987 RMK A01 T02501022  RH  017%=      5-min Rain = 0
KDC1 270311Z 27014KT 25/M02 A2987 RMK A01 T02501022  RH  016%=      5-min Rain = 0
KDC1 270312Z 27014KT 25/M02 A2987 RMK A01 T02501022  RH  016%=      5-min Rain = 0
KDC1 270313Z 27014KT 25/M02 A2987 RMK A01 T02491021  RH  017%=      5-min Rain = 0
KDC1 270314Z 27014KT 25/M02 A2987 RMK A01 T02491021  RH  017%=      5-min Rain = 0
KDC1 270315Z 27013KT 25/M02 A2987 RMK A01 T02481022  RH  017%=      5-min Rain = 0
KDC1 270316Z 27013KT 25/M02 A2987 RMK A01 T02481022  RH  017%=      5-min Rain = 0
KDC1 270317Z 27013KT 25/M02 A2987 RMK A01 T02471024  RH  016%=      5-min Rain = 0
KDC1 270318Z 27013KT 25/M03 A2987 RMK A01 T02471025  RH  016%=      5-min Rain = 0
KDC1 270319Z 27012KT 25/M03 A2987 RMK A01 T02471027  RH  016%=      5-min Rain = 0
KDC1 270320Z 27013KT 25/M03 A2988 RMK A01 T02481030  RH  016%=      5-min Rain = 0
KDC1 270321Z 27012KT 25/M03 A2988 RMK A01 T02501032  RH  015%=      5-min Rain = 0
KDC1 270322Z 27011KT 25/M03 A2988 RMK A01 T02501033  RH  015%=      5-min Rain = 0
KDC1 270323Z 27011KT 25/M03 A2988 RMK A01 T02491034  RH  015%=      5-min Rain = 0
KDC1 270324Z 27010KT 25/M04 A2988 RMK A01 T02481036  RH  015%=      5-min Rain = 0
KDC1 270325Z 27009KT 25/M04 A2988 RMK A01 T02481037  RH  015%=      5-min Rain = 0
KDC1 270326Z 27009KT 25/M04 A2988 RMK A01 T02471039  RH  015%=      5-min Rain = 0
KDC1 270327Z 26008KT 25/M04 A2988 RMK A01 T02471040  RH  015%=      5-min Rain = 0
KDC1 270328Z 26007KT 25/M04 A2988 RMK A01 T02471041  RH  014%=      5-min Rain = 0
KDC1 270329Z 27008KT 25/M04 A2988 RMK A01 T02461041  RH  015%=      5-min Rain = 0
KDC1 270330Z 27008KT 24/M04 A2988 RMK A01 T02441040  RH  015%=      5-min Rain = 0
KDC1 270331Z 26007KT 24/M04 A2988 RMK A01 T02431039  RH  015%=      5-min Rain = 0
KDC1 270332Z 26006KT 24/M04 A2988 RMK A01 T02421039  RH  015%=      5-min Rain = 0
KDC1 270333Z 26006KT 24/M04 A2989 RMK A01 T02421039  RH  015%=      5-min Rain = 0
KDC1 270334Z 26007KT 24/M04 A2989 RMK A01 T02411039  RH  015%=      5-min Rain = 0
KDC1 270335Z 27007KT 24/M04 A2989 RMK A01 T02411040  RH  015%=      5-min Rain = 0
KDC1 270336Z 27007KT 24/M04 A2989 RMK A01 T02411038  RH  015%=      5-min Rain = 0
KDC1 270337Z 26006KT 24/M04 A2989 RMK A01 T02401038  RH  015%=      5-min Rain = 0
KDC1 270338Z 26006KT 24/M04 A2989 RMK A01 T02391038  RH  016%=      5-min Rain = 0
KDC1 270339Z 26006KT 24/M04 A2989 RMK A01 T02381039  RH  016%=      5-min Rain = 0
KDC1 270340Z 27006KT 24/M04 A2989 RMK A01 T02381037  RH  016%=      5-min Rain = 0
KDC1 270341Z 27006KT 24/M03 A2989 RMK A01 T02371034  RH  016%=      5-min Rain = 0
KDC1 270342Z 28006KT 24/M03 A2989 RMK A01 T02351034  RH  016%=      5-min Rain = 0
KDC1 270343Z 28006KT 23/M03 A2989 RMK A01 T02331031  RH  017%=      5-min Rain = 0
KDC1 270344Z 28006KT 23/M03 A2989 RMK A01 T02311027  RH  018%=      5-min Rain = 0
KDC1 270345Z 28006KT 23/M02 A2989 RMK A01 T02281022  RH  019%=      5-min Rain = 0
KDC1 270346Z 28006KT 23/M02 A2989 RMK A01 T02261016  RH  020%=      5-min Rain = 0
KDC1 270347Z 27005KT 22/M01 A299 RMK A01 T02231011  RH  021%=      5-min Rain = 0
KDC1 270348Z 27004KT 22/M01 A299 RMK A01 T02211012  RH  021%=      5-min Rain = 0
KDC1 270349Z 27004KT 22/M01 A299 RMK A01 T02201014  RH  021%=      5-min Rain = 0
KDC1 270350Z 27003KT 22/M01 A299 RMK A01 T02201011  RH  021%=      5-min Rain = 0
KDC1 270351Z 28003KT 22/M01 A299 RMK A01 T02191009  RH  022%=      5-min Rain = 0
KDC1 270352Z 28002KT 22/M01 A299 RMK A01 T02181005  RH  023%=      5-min Rain = 0
KDC1 270353Z 30000KT 22/00 A299 RMK A01 T02180002  RH  024%=      5-min Rain = 0
KDC1 270354Z 09001KT 22/M00 A299 RMK A01 T02171001  RH  023%=      5-min Rain = 0
KDC1 270355Z 08002KT 22/M01 A299 RMK A01 T02181007  RH  022%=      5-min Rain = 0
KDC1 270356Z 09003KT 22/M01 A299 RMK A01 T02211011  RH  021%=      5-min Rain = 0
KDC1 270357Z 09005KT 22/00 A299 RMK A01 T022200-0  RH  023%=      5-min Rain = 0
KDC1 270358Z 09007KT 22/01 A299 RMK A01 T02170013  RH  026%=      5-min Rain = 0
KDC1 270359Z 10006KT 21/02 A299 RMK A01 T02110015  RH  027%=      5-min Rain = 0
KDC1 270400Z 10007KT 21/02 A2991 RMK A01 T02060019  RH  029%=      5-min Rain = 0
KDC1 270401Z 12004KT 20/02 A2991 RMK A01 T02040019  RH  029%=      5-min Rain = 0
KDC1 270402Z 11004KT 20/02 A2991 RMK A01 T02020021  RH  030%=      5-min Rain = 0
KDC1 270403Z 10004KT 20/02 A2991 RMK A01 T01990022  RH  031%=      5-min Rain = 0
KDC1 270404Z 11005KT 20/01 A2991 RMK A01 T02010013  RH  029%=      5-min Rain = 0
KDC1 270405Z 13004KT 21/01 A299 RMK A01 T02050011  RH  027%=      5-min Rain = 0
KDC1 270406Z 14004KT 21/01 A299 RMK A01 T02070010  RH  027%=      5-min Rain = 0
KDC1 270407Z 16003KT 21/M01 A299 RMK A01 T02111006  RH  024%=      5-min Rain = 0
KDC1 270408Z 14005KT 21/01 A299 RMK A01 T02120009  RH  026%=      5-min Rain = 0
KDC1 270409Z 14005KT 21/01 A299 RMK A01 T02090010  RH  027%=      5-min Rain = 0
KDC1 270410Z 15004KT 21/00 A299 RMK A01 T02060003  RH  026%=      5-min Rain = 0
KDC1 270411Z 16004KT 21/M01 A299 RMK A01 T02051009  RH  024%=      5-min Rain = 0
KDC1 270412Z 17004KT 21/M02 A299 RMK A01 T02091015  RH  022%=      5-min Rain = 0
KDC1 270413Z 18004KT 21/M02 A299 RMK A01 T02141017  RH  021%=      5-min Rain = 0
KDC1 270414Z 15003KT 22/M03 A299 RMK A01 T02171025  RH  020%=      5-min Rain = 0
KDC1 270415Z 19001KT 22/M02 A299 RMK A01 T02211023  RH  019%=      5-min Rain = 0
KDC1 270416Z 23001KT 22/M02 A299 RMK A01 T02221023  RH  019%=      5-min Rain = 0
KDC1 270417Z 20002KT 22/M03 A299 RMK A01 T02221027  RH  019%=      5-min Rain = 0
KDC1 270418Z 23003KT 22/M03 A2991 RMK A01 T02241033  RH  018%=      5-min Rain = 0
KDC1 270419Z 25002KT 23/M04 A2991 RMK A01 T02271039  RH  017%=      5-min Rain = 0
KDC1 270420Z 18002KT 23/M04 A2991 RMK A01 T02301035  RH  017%=      5-min Rain = 0
KDC1 270421Z 15002KT 23/M02 A2991 RMK A01 T02291021  RH  019%=      5-min Rain = 0
KDC1 270422Z 24001KT 23/M03 A2991 RMK A01 T02261025  RH  019%=      5-min Rain = 0
KDC1 270423Z 19002KT 23/M03 A2991 RMK A01 T02251025  RH  019%=      5-min Rain = 0
KDC1 270424Z 22002KT 23/M03 A2991 RMK A01 T02251031  RH  018%=      5-min Rain = 0
KDC1 270425Z 19002KT 23/M04 A2991 RMK A01 T02261041  RH  016%=      5-min Rain = 0
KDC1 270426Z 27003KT 23/M04 A2991 RMK A01 T02281039  RH  017%=      5-min Rain = 0
KDC1 270427Z 23001KT 23/M05 A2991 RMK A01 T02311052  RH  015%=      5-min Rain = 0
KDC1 270428Z 20001KT 23/M05 A2991 RMK A01 T02341046  RH  015%=      5-min Rain = 0
KDC1 270429Z 18002KT 23/M04 A2991 RMK A01 T02341041  RH  016%=      5-min Rain = 0
KDC1 270430Z 16001KT 23/M05 A2991 RMK A01 T02341046  RH  015%=      5-min Rain = 0
KDC1 270431Z 15001KT 24/M04 A2991 RMK A01 T02351044  RH  015%=      5-min Rain = 0
KDC1 270432Z 17001KT 23/M04 A2991 RMK A01 T02341035  RH  016%=      5-min Rain = 0
KDC1 270433Z 17002KT 23/M03 A2991 RMK A01 T02321033  RH  017%=      5-min Rain = 0
KDC1 270434Z 16002KT 23/M02 A2991 RMK A01 T02291024  RH  018%=      5-min Rain = 0
KDC1 270435Z 16003KT 23/M02 A2991 RMK A01 T02251024  RH  019%=      5-min Rain = 0
KDC1 270436Z 14003KT 22/M03 A2991 RMK A01 T02231031  RH  018%=      5-min Rain = 0
KDC1 270437Z 14004KT 22/M02 A2991 RMK A01 T02221015  RH  020%=      5-min Rain = 0
KDC1 270438Z 15005KT 22/M00 A2991 RMK A01 T02171004  RH  023%=      5-min Rain = 0
KDC1 270439Z 15005KT 21/M00 A2992 RMK A01 T02121003  RH  024%=      5-min Rain = 0
KDC1 270440Z 15006KT 21/00 A2992 RMK A01 T02070002  RH  025%=      5-min Rain = 0
KDC1 270441Z 16005KT 20/00 A2992 RMK A01 T02020003  RH  026%=      5-min Rain = 0
KDC1 270442Z 16005KT 20/01 A2992 RMK A01 T01990009  RH  028%=      5-min Rain = 0
KDC1 270443Z 16005KT 20/02 A2992 RMK A01 T01950016  RH  030%=      5-min Rain = 0
KDC1 270444Z 16005KT 19/02 A2992 RMK A01 T01910015  RH  031%=      5-min Rain = 0
KDC1 270445Z 15004KT 19/00 A2992 RMK A01 T018900-0  RH  028%=      5-min Rain = 0
KDC1 270446Z 16005KT 19/01 A2992 RMK A01 T01890011  RH  030%=      5-min Rain = 0
KDC1 270447Z 16004KT 19/02 A2992 RMK A01 T01870018  RH  032%=      5-min Rain = 0
KDC1 270448Z 16001KT 19/02 A2992 RMK A01 T01850015  RH  032%=      5-min Rain = 0
KDC1 270449Z 16002KT 19/01 A2992 RMK A01 T01850005  RH  030%=      5-min Rain = 0
KDC1 270450Z 16001KT 19/01 A2992 RMK A01 T01860005  RH  030%=      5-min Rain = 0
KDC1 270451Z 16001KT 19/00 A2992 RMK A01 T018700-0  RH  028%=      5-min Rain = 0
KDC1 270452Z 16001KT 19/00 A2992 RMK A01 T01890002  RH  028%=      5-min Rain = 0
KDC1 270453Z 17000KT 19/00 A2992 RMK A01 T01910004  RH  028%=      5-min Rain = 0
KDC1 270454Z 00000KT 19/00 A2992 RMK A01 T019400-0  RH  027%=      5-min Rain = 0
KDC1 270455Z 00000KT 20/M00 A2992 RMK A01 T01961004  RH  026%=      5-min Rain = 0
KDC1 270456Z 00000KT 20/M01 A2992 RMK A01 T01991010  RH  025%=      5-min Rain = 0
KDC1 270457Z 15000KT 20/M01 A2992 RMK A01 T02021012  RH  024%=      5-min Rain = 0
KDC1 270458Z 24000KT 20/M02 A2992 RMK A01 T02031020  RH  022%=      5-min Rain = 0
KDC1 270459Z 00000KT 21/M03 A2992 RMK A01 T02051026  RH  021%=      5-min Rain = 0

Page generated in 0.0345 seconds.